Observation data for Hackberry on 05/28/2019      Previous  Date  Next       Current Mesonet Observations  Soil Data  Daily Summary Page  Observations in Plain Language
KHA3 280500Z 15014KT 24/20 A2969 RMK A01 T02410197  RH  076%=      5-min Rain = 0
KHA3 280501Z 15012KT 24/20 A2969 RMK A01 T02420197  RH  076%=      5-min Rain = 0
KHA3 280502Z 15012KT 24/20 A2969 RMK A01 T02420198  RH  076%=      5-min Rain = 0
KHA3 280503Z 15012KT 24/20 A2969 RMK A01 T02410198  RH  077%=      5-min Rain = 0
KHA3 280504Z 15012KT 24/20 A2969 RMK A01 T02400198  RH  077%=      5-min Rain = 0
KHA3 280505Z 15013KT 24/20 A2969 RMK A01 T02400197  RH  077%=      5-min Rain = 0
KHA3 280506Z 15014KT 24/20 A2969 RMK A01 T02400197  RH  077%=      5-min Rain = 0
KHA3 280507Z 15015KT 24/20 A2969 RMK A01 T02410197  RH  077%=      5-min Rain = 0
KHA3 280508Z 15012KT 24/20 A2969 RMK A01 T02410198  RH  076%=      5-min Rain = 0
KHA3 280509Z 15011KT 24/20 A2969 RMK A01 T02410198  RH  077%=      5-min Rain = 0
KHA3 280510Z 15013KT 24/20 A2969 RMK A01 T02400198  RH  077%=      5-min Rain = 0
KHA3 280511Z 15012KT 24/20 A2969 RMK A01 T02400198  RH  077%=      5-min Rain = 0
KHA3 280512Z 15014KT 24/20 A2969 RMK A01 T02400198  RH  078%=      5-min Rain = 0
KHA3 280513Z 15013KT 24/20 A2969 RMK A01 T02400198  RH  078%=      5-min Rain = 0
KHA3 280514Z 15012KT 24/20 A2969 RMK A01 T02390198  RH  078%=      5-min Rain = 0
KHA3 280515Z 15013KT 24/20 A2969 RMK A01 T02390198  RH  078%=      5-min Rain = 0
KHA3 280516Z 15014KT 24/20 A2969 RMK A01 T02390198  RH  078%=      5-min Rain = 0
KHA3 280517Z 15014KT 24/20 A2969 RMK A01 T02390198  RH  078%=      5-min Rain = 0
KHA3 280518Z 15013KT 24/20 A2969 RMK A01 T02390198  RH  078%=      5-min Rain = 0
KHA3 280519Z 15013KT 24/20 A2969 RMK A01 T02390198  RH  078%=      5-min Rain = 0
KHA3 280520Z 15012KT 24/20 A2969 RMK A01 T02390198  RH  078%=      5-min Rain = 0
KHA3 280521Z 15013KT 24/20 A2969 RMK A01 T02380198  RH  078%=      5-min Rain = 0
KHA3 280522Z 15013KT 24/20 A2969 RMK A01 T02380199  RH  078%=      5-min Rain = 0
KHA3 280523Z 15013KT 24/20 A2969 RMK A01 T02380198  RH  078%=      5-min Rain = 0
KHA3 280524Z 15012KT 24/20 A2969 RMK A01 T02380198  RH  079%=      5-min Rain = 0
KHA3 280525Z 15013KT 24/20 A2969 RMK A01 T02370198  RH  079%=      5-min Rain = 0
KHA3 280526Z 15012KT 24/20 A2969 RMK A01 T02370198  RH  079%=      5-min Rain = 0
KHA3 280527Z 15013KT 24/20 A2969 RMK A01 T02370198  RH  079%=      5-min Rain = 0
KHA3 280528Z 15013KT 24/20 A2969 RMK A01 T02370198  RH  079%=      5-min Rain = 0
KHA3 280529Z 15012KT 24/20 A2969 RMK A01 T02370198  RH  079%=      5-min Rain = 0
KHA3 280530Z 15013KT 24/20 A2969 RMK A01 T02370198  RH  079%=      5-min Rain = 0
KHA3 280531Z 15013KT 24/20 A2969 RMK A01 T02370198  RH  079%=      5-min Rain = 0
KHA3 280532Z 15013KT 24/20 A2969 RMK A01 T02370199  RH  079%=      5-min Rain = 0
KHA3 280533Z 15012KT 24/20 A2969 RMK A01 T02370199  RH  079%=      5-min Rain = 0
KHA3 280534Z 15012KT 24/20 A2969 RMK A01 T02370199  RH  079%=      5-min Rain = 0
KHA3 280535Z 15012KT 24/20 A2969 RMK A01 T02360199  RH  080%=      5-min Rain = 0
KHA3 280536Z 15013KT 24/20 A2969 RMK A01 T02350199  RH  080%=      5-min Rain = 0
KHA3 280537Z 15014KT 24/20 A2968 RMK A01 T02350199  RH  080%=      5-min Rain = 0
KHA3 280538Z 15012KT 24/20 A2968 RMK A01 T02360199  RH  080%=      5-min Rain = 0
KHA3 280539Z 15012KT 24/20 A2968 RMK A01 T02360199  RH  080%=      5-min Rain = 0
KHA3 280540Z 15012KT 24/20 A2968 RMK A01 T02350199  RH  080%=      5-min Rain = 0
KHA3 280541Z 15013KT 24/20 A2968 RMK A01 T02350199  RH  080%=      5-min Rain = 0
KHA3 280542Z 15012KT 24/20 A2968 RMK A01 T02350199  RH  080%=      5-min Rain = 0
KHA3 280543Z 15011KT 24/20 A2968 RMK A01 T02350199  RH  080%=      5-min Rain = 0
KHA3 280544Z 15013KT 24/20 A2968 RMK A01 T02350199  RH  080%=      5-min Rain = 0
KHA3 280545Z 15013KT 24/20 A2968 RMK A01 T02350199  RH  080%=      5-min Rain = 0
KHA3 280546Z 16012KT 24/20 A2968 RMK A01 T02350199  RH  080%=      5-min Rain = 0
KHA3 280547Z 15012KT 24/20 A2968 RMK A01 T02350199  RH  080%=      5-min Rain = 0
KHA3 280548Z 15014KT 23/20 A2968 RMK A01 T02340199  RH  081%=      5-min Rain = 0
KHA3 280549Z 15012KT 24/20 A2968 RMK A01 T02350199  RH  081%=      5-min Rain = 0
KHA3 280550Z 15012KT 24/20 A2968 RMK A01 T02350199  RH  081%=      5-min Rain = 0
KHA3 280551Z 15013KT 23/20 A2968 RMK A01 T02340199  RH  081%=      5-min Rain = 0
KHA3 280552Z 15014KT 24/20 A2968 RMK A01 T02350199  RH  080%=      5-min Rain = 0
KHA3 280553Z 15013G18KT 24/20 A2968 RMK A01 T02350200  RH  080%=      5-min Rain = 0
KHA3 280554Z 15014KT 24/20 A2968 RMK A01 T02350199  RH  080%=      5-min Rain = 0
KHA3 280555Z 15013KT 24/20 A2968 RMK A01 T02350199  RH  080%=      5-min Rain = 0
KHA3 280556Z 16013KT 24/20 A2968 RMK A01 T02350200  RH  080%=      5-min Rain = 0
KHA3 280557Z 15012KT 24/20 A2968 RMK A01 T02350199  RH  080%=      5-min Rain = 0
KHA3 280558Z 16012KT 24/20 A2968 RMK A01 T02350199  RH  080%=      5-min Rain = 0
KHA3 280559Z 15012KT 24/20 A2968 RMK A01 T02350200  RH  081%=      5-min Rain = 0
KHA3 280600Z 16013G18KT 23/20 A2968 RMK A01 T02340199  RH  081%=      5-min Rain = 0
KHA3 280601Z 16012KT 23/20 A2968 RMK A01 T02340199  RH  081%=      5-min Rain = 0
KHA3 280602Z 16011G16KT 23/20 A2968 RMK A01 T02340199  RH  081%=      5-min Rain = 0
KHA3 280603Z 16013KT 23/20 A2968 RMK A01 T02340200  RH  081%=      5-min Rain = 0
KHA3 280604Z 16013KT 23/20 A2968 RMK A01 T02340199  RH  081%=      5-min Rain = 0
KHA3 280605Z 16013KT 23/20 A2968 RMK A01 T02340199  RH  081%=      5-min Rain = 0
KHA3 280606Z 16012KT 23/20 A2968 RMK A01 T02340199  RH  081%=      5-min Rain = 0
KHA3 280607Z 16013KT 23/20 A2968 RMK A01 T02340199  RH  081%=      5-min Rain = 0
KHA3 280608Z 16014KT 23/20 A2968 RMK A01 T02340199  RH  081%=      5-min Rain = 0
KHA3 280609Z 16013KT 23/20 A2968 RMK A01 T02340199  RH  080%=      5-min Rain = 0
KHA3 280610Z 16014KT 23/20 A2968 RMK A01 T02340199  RH  080%=      5-min Rain = 0
KHA3 280611Z 16015KT 24/20 A2968 RMK A01 T02350199  RH  081%=      5-min Rain = 0
KHA3 280612Z 16014KT 23/20 A2968 RMK A01 T02340199  RH  080%=      5-min Rain = 0
KHA3 280613Z 16014KT 23/20 A2968 RMK A01 T02340199  RH  080%=      5-min Rain = 0
KHA3 280614Z 16014KT 24/20 A2967 RMK A01 T02350199  RH  080%=      5-min Rain = 0
KHA3 280615Z 16015KT 24/20 A2968 RMK A01 T02350199  RH  080%=      5-min Rain = 0
KHA3 280616Z 16014KT 24/20 A2968 RMK A01 T02350199  RH  080%=      5-min Rain = 0
KHA3 280617Z 16014KT 24/20 A2968 RMK A01 T02350199  RH  080%=      5-min Rain = 0
KHA3 280618Z 16014KT 24/20 A2968 RMK A01 T02350199  RH  080%=      5-min Rain = 0
KHA3 280619Z 16013KT 23/20 A2968 RMK A01 T02340199  RH  081%=      5-min Rain = 0
KHA3 280620Z 16015KT 23/20 A2968 RMK A01 T02340199  RH  081%=      5-min Rain = 0
KHA3 280621Z 16013KT 23/20 A2968 RMK A01 T02340199  RH  081%=      5-min Rain = 0
KHA3 280622Z 16014KT 23/20 A2968 RMK A01 T02340200  RH  081%=      5-min Rain = 0
KHA3 280623Z 16014KT 23/20 A2968 RMK A01 T02340200  RH  081%=      5-min Rain = 0
KHA3 280624Z 16012KT 23/20 A2968 RMK A01 T02340199  RH  081%=      5-min Rain = 0
KHA3 280625Z 16014KT 23/20 A2968 RMK A01 T02330199  RH  081%=      5-min Rain = 0
KHA3 280626Z 16015KT 23/20 A2968 RMK A01 T02330199  RH  081%=      5-min Rain = 0
KHA3 280627Z 16014KT 23/20 A2968 RMK A01 T02330199  RH  081%=      5-min Rain = 0
KHA3 280628Z 16015KT 23/20 A2967 RMK A01 T02330199  RH  081%=      5-min Rain = 0
KHA3 280629Z 16014KT 23/20 A2967 RMK A01 T02330199  RH  081%=      5-min Rain = 0
KHA3 280630Z 16013KT 23/20 A2967 RMK A01 T02330199  RH  081%=      5-min Rain = 0
KHA3 280631Z 16014KT 23/20 A2967 RMK A01 T02330199  RH  081%=      5-min Rain = 0
KHA3 280632Z 16015KT 23/20 A2967 RMK A01 T02320199  RH  081%=      5-min Rain = 0
KHA3 280633Z 16014KT 23/20 A2967 RMK A01 T02330199  RH  081%=      5-min Rain = 0
KHA3 280634Z 16013KT 23/20 A2967 RMK A01 T02330199  RH  081%=      5-min Rain = 0
KHA3 280635Z 16013KT 23/20 A2967 RMK A01 T02330199  RH  081%=      5-min Rain = 0
KHA3 280636Z 16014KT 23/20 A2967 RMK A01 T02320199  RH  081%=      5-min Rain = 0
KHA3 280637Z 16012KT 23/20 A2967 RMK A01 T02320199  RH  082%=      5-min Rain = 0
KHA3 280638Z 16013KT 23/20 A2967 RMK A01 T02320199  RH  082%=      5-min Rain = 0
KHA3 280639Z 16013KT 23/20 A2967 RMK A01 T02320199  RH  082%=      5-min Rain = 0
KHA3 280640Z 16014KT 23/20 A2967 RMK A01 T02320198  RH  082%=      5-min Rain = 0
KHA3 280641Z 16013KT 23/20 A2967 RMK A01 T02320198  RH  081%=      5-min Rain = 0
KHA3 280642Z 16013KT 23/20 A2967 RMK A01 T02320198  RH  081%=      5-min Rain = 0
KHA3 280643Z 16013KT 23/20 A2967 RMK A01 T02320199  RH  082%=      5-min Rain = 0
KHA3 280644Z 16013KT 23/20 A2967 RMK A01 T02320199  RH  082%=      5-min Rain = 0
KHA3 280645Z 16013KT 23/20 A2967 RMK A01 T02310199  RH  082%=      5-min Rain = 0
KHA3 280646Z 16014KT 23/20 A2967 RMK A01 T02310198  RH  082%=      5-min Rain = 0
KHA3 280647Z 16013KT 23/20 A2967 RMK A01 T02320198  RH  081%=      5-min Rain = 0
KHA3 280648Z 16013KT 23/20 A2967 RMK A01 T02320198  RH  081%=      5-min Rain = 0
KHA3 280649Z 16013KT 23/20 A2967 RMK A01 T02310198  RH  082%=      5-min Rain = 0
KHA3 280650Z 16014KT 23/20 A2967 RMK A01 T02310199  RH  082%=      5-min Rain = 0
KHA3 280651Z 16013KT 23/20 A2967 RMK A01 T02310198  RH  082%=      5-min Rain = 0
KHA3 280652Z 16012KT 23/20 A2967 RMK A01 T02310198  RH  082%=      5-min Rain = 0
KHA3 280653Z 16014KT 23/20 A2967 RMK A01 T02310198  RH  082%=      5-min Rain = 0
KHA3 280654Z 16012KT 23/20 A2967 RMK A01 T02310198  RH  082%=      5-min Rain = 0
KHA3 280655Z 16012KT 23/20 A2967 RMK A01 T02310198  RH  082%=      5-min Rain = 0
KHA3 280656Z 17011KT 23/20 A2967 RMK A01 T02300198  RH  082%=      5-min Rain = 0
KHA3 280657Z 16013KT 23/20 A2967 RMK A01 T02300198  RH  082%=      5-min Rain = 0
KHA3 280658Z 16013KT 23/20 A2967 RMK A01 T02290198  RH  082%=      5-min Rain = 0
KHA3 280659Z 17013KT 23/20 A2967 RMK A01 T02300198  RH  082%=      5-min Rain = 0
KHA3 280700Z 16013KT 23/20 A2967 RMK A01 T02300198  RH  082%=      5-min Rain = 0
KHA3 280701Z 16013KT 23/20 A2967 RMK A01 T02300198  RH  082%=      5-min Rain = 0
KHA3 280702Z 17014KT 23/20 A2967 RMK A01 T02300198  RH  082%=      5-min Rain = 0
KHA3 280703Z 16013KT 23/20 A2967 RMK A01 T02300198  RH  082%=      5-min Rain = 0
KHA3 280704Z 16013KT 23/20 A2967 RMK A01 T02300197  RH  082%=      5-min Rain = 0
KHA3 280705Z 16013KT 23/20 A2967 RMK A01 T02300198  RH  082%=      5-min Rain = 0
KHA3 280706Z 16014KT 23/20 A2967 RMK A01 T02300198  RH  082%=      5-min Rain = 0
KHA3 280707Z 16012KT 23/20 A2967 RMK A01 T02300198  RH  082%=      5-min Rain = 0
KHA3 280708Z 17012KT 23/20 A2967 RMK A01 T02300198  RH  082%=      5-min Rain = 0
KHA3 280709Z 16013KT 23/20 A2967 RMK A01 T02290197  RH  082%=      5-min Rain = 0
KHA3 280710Z 16012KT 23/20 A2967 RMK A01 T02290198  RH  083%=      5-min Rain = 0
KHA3 280711Z 16011KT 23/20 A2967 RMK A01 T02290198  RH  083%=      5-min Rain = 0
KHA3 280712Z 16013KT 23/20 A2967 RMK A01 T02280197  RH  083%=      5-min Rain = 0
KHA3 280713Z 17013KT 23/20 A2967 RMK A01 T02280198  RH  083%=      5-min Rain = 0
KHA3 280714Z 17015KT 23/20 A2967 RMK A01 T02280197  RH  083%=      5-min Rain = 0
KHA3 280715Z 17013KT 23/20 A2967 RMK A01 T02280197  RH  082%=      5-min Rain = 0
KHA3 280716Z 16012KT 23/20 A2967 RMK A01 T02290197  RH  082%=      5-min Rain = 0
KHA3 280717Z 17012KT 23/20 A2967 RMK A01 T02290197  RH  082%=      5-min Rain = 0
KHA3 280718Z 17012KT 23/20 A2966 RMK A01 T02280197  RH  083%=      5-min Rain = 0
KHA3 280719Z 16014KT 23/20 A2966 RMK A01 T02280197  RH  083%=      5-min Rain = 0
KHA3 280720Z 16014KT 23/20 A2966 RMK A01 T02280197  RH  082%=      5-min Rain = 0
KHA3 280721Z 16013G18KT 23/20 A2966 RMK A01 T02290197  RH  082%=      5-min Rain = 0
KHA3 280722Z 16012KT 23/20 A2966 RMK A01 T02290197  RH  082%=      5-min Rain = 0
KHA3 280723Z 17013KT 23/20 A2966 RMK A01 T02290197  RH  082%=      5-min Rain = 0
KHA3 280724Z 17014KT 23/20 A2966 RMK A01 T02290197  RH  082%=      5-min Rain = 0
KHA3 280725Z 16014KT 23/20 A2966 RMK A01 T02290197  RH  082%=      5-min Rain = 0
KHA3 280726Z 16013KT 23/20 A2966 RMK A01 T02290196  RH  082%=      5-min Rain = 0
KHA3 280727Z 16013KT 23/20 A2966 RMK A01 T02290196  RH  082%=      5-min Rain = 0
KHA3 280728Z 17012KT 23/20 A2966 RMK A01 T02290197  RH  082%=      5-min Rain = 0
KHA3 280729Z 16014KT 23/20 A2966 RMK A01 T02280196  RH  082%=      5-min Rain = 0
KHA3 280730Z 17013KT 23/20 A2966 RMK A01 T02280196  RH  082%=      5-min Rain = 0
KHA3 280731Z 17014KT 23/20 A2966 RMK A01 T02280196  RH  082%=      5-min Rain = 0
KHA3 280732Z 17013KT 23/20 A2966 RMK A01 T02290196  RH  082%=      5-min Rain = 0
KHA3 280733Z 16013KT 23/20 A2966 RMK A01 T02290196  RH  082%=      5-min Rain = 0
KHA3 280734Z 16012G17KT 23/20 A2966 RMK A01 T02290197  RH  082%=      5-min Rain = 0
KHA3 280735Z 16014G19KT 23/20 A2966 RMK A01 T02280196  RH  082%=      5-min Rain = 0
KHA3 280736Z 17014KT 23/20 A2966 RMK A01 T02280196  RH  082%=      5-min Rain = 0
KHA3 280737Z 16014KT 23/20 A2966 RMK A01 T02280196  RH  082%=      5-min Rain = 0
KHA3 280738Z 16013KT 23/20 A2966 RMK A01 T02290196  RH  082%=      5-min Rain = 0
KHA3 280739Z 16013KT 23/20 A2966 RMK A01 T02290196  RH  082%=      5-min Rain = 0
KHA3 280740Z 17012KT 23/20 A2966 RMK A01 T02290196  RH  082%=      5-min Rain = 0
KHA3 280741Z 16012KT 23/20 A2966 RMK A01 T02280196  RH  082%=      5-min Rain = 0
KHA3 280742Z 16013KT 23/20 A2966 RMK A01 T02270196  RH  082%=      5-min Rain = 0
KHA3 280743Z 17013KT 23/20 A2966 RMK A01 T02270196  RH  082%=      5-min Rain = 0
KHA3 280744Z 17012KT 23/20 A2966 RMK A01 T02270196  RH  082%=      5-min Rain = 0
KHA3 280745Z 16012KT 23/20 A2966 RMK A01 T02270196  RH  083%=      5-min Rain = 0
KHA3 280746Z 17012KT 23/20 A2966 RMK A01 T02270195  RH  083%=      5-min Rain = 0
KHA3 280747Z 16013KT 23/20 A2966 RMK A01 T02270195  RH  082%=      5-min Rain = 0
KHA3 280748Z 16012KT 23/20 A2966 RMK A01 T02270196  RH  082%=      5-min Rain = 0
KHA3 280749Z 17011KT 23/20 A2966 RMK A01 T02270195  RH  082%=      5-min Rain = 0
KHA3 280750Z 16011KT 23/20 A2966 RMK A01 T02270195  RH  083%=      5-min Rain = 0
KHA3 280751Z 16012KT 23/20 A2966 RMK A01 T02260195  RH  083%=      5-min Rain = 0
KHA3 280752Z 17010KT 23/20 A2966 RMK A01 T02260196  RH  083%=      5-min Rain = 0
KHA3 280753Z 16012KT 23/20 A2966 RMK A01 T02260196  RH  083%=      5-min Rain = 0
KHA3 280754Z 16013KT 23/20 A2965 RMK A01 T02250195  RH  083%=      5-min Rain = 0
KHA3 280755Z 17012KT 23/20 A2965 RMK A01 T02260195  RH  083%=      5-min Rain = 0
KHA3 280756Z 16011KT 23/20 A2965 RMK A01 T02260195  RH  083%=      5-min Rain = 0
KHA3 280757Z 17010KT 23/20 A2965 RMK A01 T02260195  RH  083%=      5-min Rain = 0
KHA3 280758Z 17012KT 23/20 A2965 RMK A01 T02250195  RH  083%=      5-min Rain = 0
KHA3 280759Z 16011KT 23/20 A2965 RMK A01 T02250195  RH  083%=      5-min Rain = 0
KHA3 280800Z 17011KT 23/20 A2965 RMK A01 T02250195  RH  083%=      5-min Rain = 0
KHA3 280801Z 16011KT 23/20 A2965 RMK A01 T02250195  RH  083%=      5-min Rain = 0
KHA3 280802Z 16011KT 23/20 A2965 RMK A01 T02250195  RH  083%=      5-min Rain = 0
KHA3 280803Z 16011KT 23/20 A2965 RMK A01 T02250195  RH  083%=      5-min Rain = 0
KHA3 280804Z 16011KT 22/20 A2965 RMK A01 T02240195  RH  084%=      5-min Rain = 0
KHA3 280805Z 17011KT 22/20 A2965 RMK A01 T02240195  RH  084%=      5-min Rain = 0
KHA3 280806Z 17012KT 22/20 A2965 RMK A01 T02240195  RH  084%=      5-min Rain = 0
KHA3 280807Z 17011KT 22/20 A2965 RMK A01 T02240195  RH  083%=      5-min Rain = 0
KHA3 280808Z 17013KT 22/20 A2965 RMK A01 T02240195  RH  084%=      5-min Rain = 0
KHA3 280809Z 17012KT 22/19 A2965 RMK A01 T02230194  RH  084%=      5-min Rain = 0
KHA3 280810Z 17010KT 22/20 A2965 RMK A01 T02230195  RH  084%=      5-min Rain = 0
KHA3 280811Z 17011KT 22/20 A2965 RMK A01 T02240195  RH  084%=      5-min Rain = 0
KHA3 280812Z 17011KT 22/19 A2965 RMK A01 T02230194  RH  084%=      5-min Rain = 0
KHA3 280813Z 17013KT 22/20 A2966 RMK A01 T02230195  RH  084%=      5-min Rain = 0
KHA3 280814Z 17012KT 22/19 A2966 RMK A01 T02230194  RH  084%=      5-min Rain = 0
KHA3 280815Z 17012KT 22/19 A2966 RMK A01 T02230194  RH  084%=      5-min Rain = 0
KHA3 280816Z 17011KT 22/19 A2966 RMK A01 T02230194  RH  083%=      5-min Rain = 0
KHA3 280817Z 17012KT 22/20 A2966 RMK A01 T02240195  RH  084%=      5-min Rain = 0
KHA3 280818Z 17010KT 22/19 A2966 RMK A01 T02230194  RH  084%=      5-min Rain = 0
KHA3 280819Z 17011KT 22/19 A2966 RMK A01 T02230194  RH  084%=      5-min Rain = 0
KHA3 280820Z 17011KT 22/19 A2966 RMK A01 T02230194  RH  084%=      5-min Rain = 0
KHA3 280821Z 17011KT 22/20 A2966 RMK A01 T02240195  RH  084%=      5-min Rain = 0
KHA3 280822Z 17011KT 22/19 A2966 RMK A01 T02230194  RH  084%=      5-min Rain = 0
KHA3 280823Z 17011KT 22/20 A2966 RMK A01 T02230195  RH  084%=      5-min Rain = 0
KHA3 280824Z 17011KT 22/19 A2966 RMK A01 T02230194  RH  084%=      5-min Rain = 0
KHA3 280825Z 17013KT 22/19 A2966 RMK A01 T02230194  RH  084%=      5-min Rain = 0
KHA3 280826Z 16010KT 22/19 A2966 RMK A01 T02230194  RH  084%=      5-min Rain = 0
KHA3 280827Z 17011KT 22/19 A2966 RMK A01 T02230194  RH  084%=      5-min Rain = 0
KHA3 280828Z 17010KT 22/19 A2966 RMK A01 T02230194  RH  084%=      5-min Rain = 0
KHA3 280829Z 16010KT 22/19 A2966 RMK A01 T02230194  RH  084%=      5-min Rain = 0
KHA3 280830Z 17011KT 22/19 A2966 RMK A01 T02220194  RH  084%=      5-min Rain = 0
KHA3 280831Z 16010KT 22/19 A2966 RMK A01 T02220194  RH  084%=      5-min Rain = 0
KHA3 280832Z 17011KT 22/19 A2966 RMK A01 T02210194  RH  084%=      5-min Rain = 0
KHA3 280833Z 17011KT 22/19 A2966 RMK A01 T02210193  RH  084%=      5-min Rain = 0
KHA3 280834Z 17010KT 22/19 A2966 RMK A01 T02210194  RH  084%=      5-min Rain = 0
KHA3 280835Z 17010KT 22/19 A2966 RMK A01 T02210194  RH  084%=      5-min Rain = 0
KHA3 280836Z 16010KT 22/19 A2966 RMK A01 T02210194  RH  084%=      5-min Rain = 0
KHA3 280837Z 16010KT 22/19 A2966 RMK A01 T02210193  RH  084%=      5-min Rain = 0
KHA3 280838Z 17011KT 22/19 A2966 RMK A01 T02220194  RH  084%=      5-min Rain = 0
KHA3 280839Z 16011KT 22/19 A2966 RMK A01 T02210194  RH  084%=      5-min Rain = 0
KHA3 280840Z 17009KT 22/19 A2966 RMK A01 T02210194  RH  084%=      5-min Rain = 0
KHA3 280841Z 16010KT 22/19 A2966 RMK A01 T02210193  RH  085%=      5-min Rain = 0
KHA3 280842Z 16011KT 22/19 A2966 RMK A01 T02200193  RH  085%=      5-min Rain = 0
KHA3 280843Z 17008KT 22/19 A2966 RMK A01 T02200193  RH  085%=      5-min Rain = 0
KHA3 280844Z 16008KT 22/19 A2966 RMK A01 T02200194  RH  085%=      5-min Rain = 0
KHA3 280845Z 16010KT 22/19 A2966 RMK A01 T02190193  RH  085%=      5-min Rain = 0
KHA3 280846Z 16011KT 22/19 A2966 RMK A01 T02190193  RH  085%=      5-min Rain = 0
KHA3 280847Z 16011KT 22/19 A2966 RMK A01 T02190193  RH  085%=      5-min Rain = 0
KHA3 280848Z 17010KT 22/19 A2966 RMK A01 T02190193  RH  085%=      5-min Rain = 0
KHA3 280849Z 17010KT 22/19 A2966 RMK A01 T02200193  RH  085%=      5-min Rain = 0
KHA3 280850Z 16010KT 22/19 A2966 RMK A01 T02200193  RH  085%=      5-min Rain = 0
KHA3 280851Z 16010KT 22/19 A2966 RMK A01 T02190193  RH  085%=      5-min Rain = 0
KHA3 280852Z 16010KT 22/19 A2966 RMK A01 T02190193  RH  085%=      5-min Rain = 0
KHA3 280853Z 16012KT 22/19 A2966 RMK A01 T02190193  RH  085%=      5-min Rain = 0
KHA3 280854Z 16011KT 22/19 A2966 RMK A01 T02190193  RH  085%=      5-min Rain = 0
KHA3 280855Z 16010KT 22/19 A2966 RMK A01 T02190192  RH  085%=      5-min Rain = 0
KHA3 280856Z 16011KT 22/19 A2966 RMK A01 T02190193  RH  085%=      5-min Rain = 0
KHA3 280857Z 17010KT 22/19 A2966 RMK A01 T02190193  RH  085%=      5-min Rain = 0
KHA3 280858Z 17009KT 22/19 A2966 RMK A01 T02190193  RH  085%=      5-min Rain = 0
KHA3 280859Z 17009KT 22/19 A2966 RMK A01 T02180192  RH  085%=      5-min Rain = 0
KHA3 280900Z 17010KT 22/19 A2966 RMK A01 T02180192  RH  085%=      5-min Rain = 0
KHA3 280901Z 16010KT 22/19 A2966 RMK A01 T02180193  RH  085%=      5-min Rain = 0
KHA3 280902Z 17010KT 22/19 A2966 RMK A01 T02180193  RH  086%=      5-min Rain = 0
KHA3 280903Z 16010KT 22/19 A2966 RMK A01 T02180193  RH  086%=      5-min Rain = 0
KHA3 280904Z 16010KT 22/19 A2966 RMK A01 T02180193  RH  086%=      5-min Rain = 0
KHA3 280905Z 17010KT 22/19 A2966 RMK A01 T02170193  RH  086%=      5-min Rain = 0
KHA3 280906Z 17009KT 22/19 A2966 RMK A01 T02170192  RH  086%=      5-min Rain = 0
KHA3 280907Z 17010KT 22/19 A2966 RMK A01 T02160192  RH  086%=      5-min Rain = 0
KHA3 280908Z 17009KT 22/19 A2966 RMK A01 T02160192  RH  086%=      5-min Rain = 0
KHA3 280909Z 17008KT 22/19 A2966 RMK A01 T02160192  RH  086%=      5-min Rain = 0
KHA3 280910Z 17008KT 22/19 A2967 RMK A01 T02160192  RH  086%=      5-min Rain = 0
KHA3 280911Z 17008KT 22/19 A2967 RMK A01 T02160193  RH  086%=      5-min Rain = 0
KHA3 280912Z 17008KT 22/19 A2967 RMK A01 T02160192  RH  087%=      5-min Rain = 0
KHA3 280913Z 18007KT 22/19 A2967 RMK A01 T02160192  RH  086%=      5-min Rain = 0
KHA3 280914Z 17007KT 22/19 A2967 RMK A01 T02160192  RH  086%=      5-min Rain = 0
KHA3 280915Z 17009KT 22/19 A2967 RMK A01 T02160192  RH  086%=      5-min Rain = 0
KHA3 280916Z 17009KT 22/19 A2966 RMK A01 T02150192  RH  087%=      5-min Rain = 0
KHA3 280917Z 17010KT 22/19 A2966 RMK A01 T02150192  RH  086%=      5-min Rain = 0
KHA3 280918Z 17009KT 22/19 A2966 RMK A01 T02160192  RH  086%=      5-min Rain = 0
KHA3 280919Z 17010KT 22/19 A2966 RMK A01 T02160192  RH  086%=      5-min Rain = 0
KHA3 280920Z 17010KT 22/19 A2966 RMK A01 T02160192  RH  086%=      5-min Rain = 0
KHA3 280921Z 17010KT 22/19 A2966 RMK A01 T02160192  RH  086%=      5-min Rain = 0
KHA3 280922Z 17009KT 22/19 A2966 RMK A01 T02160192  RH  086%=      5-min Rain = 0
KHA3 280923Z 18010KT 22/19 A2966 RMK A01 T02160192  RH  086%=      5-min Rain = 0
KHA3 280924Z 17008KT 22/19 A2967 RMK A01 T02160192  RH  086%=      5-min Rain = 0
KHA3 280925Z 17009KT 22/19 A2967 RMK A01 T02160192  RH  086%=      5-min Rain = 0
KHA3 280926Z 17009KT 22/19 A2967 RMK A01 T02160192  RH  086%=      5-min Rain = 0
KHA3 280927Z 17008KT 22/19 A2967 RMK A01 T02160192  RH  086%=      5-min Rain = 0
KHA3 280928Z 17008KT 22/19 A2967 RMK A01 T02160192  RH  086%=      5-min Rain = 0
KHA3 280929Z 17009KT 22/19 A2967 RMK A01 T02160192  RH  086%=      5-min Rain = 0
KHA3 280930Z 17009KT 22/19 A2967 RMK A01 T02150192  RH  087%=      5-min Rain = 0
KHA3 280931Z 17009KT 22/19 A2967 RMK A01 T02150192  RH  086%=      5-min Rain = 0
KHA3 280932Z 17008KT 22/19 A2967 RMK A01 T02160192  RH  086%=      5-min Rain = 0
KHA3 280933Z 17009KT 22/19 A2967 RMK A01 T02160192  RH  086%=      5-min Rain = 0
KHA3 280934Z 17009KT 22/19 A2967 RMK A01 T02160192  RH  086%=      5-min Rain = 0
KHA3 280935Z 17009KT 22/19 A2967 RMK A01 T02160192  RH  086%=      5-min Rain = 0
KHA3 280936Z 17008KT 22/19 A2967 RMK A01 T02160192  RH  086%=      5-min Rain = 0
KHA3 280937Z 17009KT 22/19 A2967 RMK A01 T02160192  RH  086%=      5-min Rain = 0
KHA3 280938Z 17009KT 22/19 A2967 RMK A01 T02160192  RH  086%=      5-min Rain = 0
KHA3 280939Z 17011KT 22/19 A2967 RMK A01 T02160191  RH  086%=      5-min Rain = 0
KHA3 280940Z 17009KT 22/19 A2967 RMK A01 T02160191  RH  086%=      5-min Rain = 0
KHA3 280941Z 17010KT 22/19 A2967 RMK A01 T02160191  RH  086%=      5-min Rain = 0
KHA3 280942Z 17010KT 22/19 A2967 RMK A01 T02160192  RH  086%=      5-min Rain = 0
KHA3 280943Z 17011KT 22/19 A2967 RMK A01 T02160192  RH  086%=      5-min Rain = 0
KHA3 280944Z 17011KT 22/19 A2967 RMK A01 T02160192  RH  086%=      5-min Rain = 0
KHA3 280945Z 17009KT 22/19 A2967 RMK A01 T02160191  RH  086%=      5-min Rain = 0
KHA3 280946Z 17010KT 22/19 A2967 RMK A01 T02160191  RH  086%=      5-min Rain = 0
KHA3 280947Z 17011KT 22/19 A2967 RMK A01 T02160192  RH  086%=      5-min Rain = 0
KHA3 280948Z 16009KT 22/19 A2967 RMK A01 T02160191  RH  086%=      5-min Rain = 0
KHA3 280949Z 16010KT 22/19 A2967 RMK A01 T02160192  RH  086%=      5-min Rain = 0
KHA3 280950Z 17010KT 22/19 A2967 RMK A01 T02150191  RH  086%=      5-min Rain = 0
KHA3 280951Z 16009KT 22/19 A2967 RMK A01 T02150191  RH  087%=      5-min Rain = 0
KHA3 280952Z 16009KT 22/19 A2967 RMK A01 T02150192  RH  087%=      5-min Rain = 0
KHA3 280953Z 16009KT 22/19 A2967 RMK A01 T02150191  RH  087%=      5-min Rain = 0
KHA3 280954Z 16010KT 21/19 A2967 RMK A01 T02140191  RH  087%=      5-min Rain = 0
KHA3 280955Z 16008KT 21/19 A2967 RMK A01 T02140191  RH  087%=      5-min Rain = 0
KHA3 280956Z 16009KT 21/19 A2967 RMK A01 T02140192  RH  087%=      5-min Rain = 0
KHA3 280957Z 16008KT 21/19 A2967 RMK A01 T02130191  RH  087%=      5-min Rain = 0
KHA3 280958Z 16009KT 21/19 A2967 RMK A01 T02130191  RH  087%=      5-min Rain = 0
KHA3 280959Z 16008KT 21/19 A2967 RMK A01 T02130191  RH  087%=      5-min Rain = 0
KHA3 281000Z 17009KT 21/19 A2967 RMK A01 T02120191  RH  088%=      5-min Rain = 0
KHA3 281001Z 16009KT 21/19 A2967 RMK A01 T02120191  RH  088%=      5-min Rain = 0
KHA3 281002Z 16009KT 21/19 A2967 RMK A01 T02120191  RH  088%=      5-min Rain = 0
KHA3 281003Z 16009KT 21/19 A2967 RMK A01 T02120191  RH  088%=      5-min Rain = 0
KHA3 281004Z 16009KT 21/19 A2967 RMK A01 T02120190  RH  088%=      5-min Rain = 0
KHA3 281005Z 16010KT 21/19 A2967 RMK A01 T02120191  RH  087%=      5-min Rain = 0
KHA3 281006Z 16010KT 21/19 A2967 RMK A01 T02130191  RH  087%=      5-min Rain = 0
KHA3 281007Z 17010KT 21/19 A2967 RMK A01 T02130191  RH  088%=      5-min Rain = 0
KHA3 281008Z 16009KT 21/19 A2967 RMK A01 T02120191  RH  087%=      5-min Rain = 0
KHA3 281009Z 16009KT 21/19 A2967 RMK A01 T02130191  RH  087%=      5-min Rain = 0
KHA3 281010Z 16008KT 21/19 A2967 RMK A01 T02130191  RH  088%=      5-min Rain = 0
KHA3 281011Z 17009KT 21/19 A2967 RMK A01 T02120191  RH  088%=      5-min Rain = 0
KHA3 281012Z 16009KT 21/19 A2967 RMK A01 T02120191  RH  088%=      5-min Rain = 0
KHA3 281013Z 17010KT 21/19 A2967 RMK A01 T02120191  RH  088%=      5-min Rain = 0
KHA3 281014Z 17010KT 21/19 A2967 RMK A01 T02120191  RH  088%=      5-min Rain = 0
KHA3 281015Z 17010KT 21/19 A2967 RMK A01 T02120191  RH  088%=      5-min Rain = 0
KHA3 281016Z 17009KT 21/19 A2967 RMK A01 T02120191  RH  088%=      5-min Rain = 0
KHA3 281017Z 17009KT 21/19 A2967 RMK A01 T02120191  RH  088%=      5-min Rain = 0
KHA3 281018Z 17009KT 21/19 A2967 RMK A01 T02120191  RH  088%=      5-min Rain = 0
KHA3 281019Z 17009KT 21/19 A2967 RMK A01 T02120191  RH  088%=      5-min Rain = 0
KHA3 281020Z 16009KT 21/19 A2967 RMK A01 T02120191  RH  088%=      5-min Rain = 0
KHA3 281021Z 16009KT 21/19 A2967 RMK A01 T02120191  RH  088%=      5-min Rain = 0
KHA3 281022Z 16010KT 21/19 A2967 RMK A01 T02110191  RH  088%=      5-min Rain = 0
KHA3 281023Z 17010KT 21/19 A2967 RMK A01 T02110191  RH  088%=      5-min Rain = 0
KHA3 281024Z 16010KT 21/19 A2967 RMK A01 T02120191  RH  088%=      5-min Rain = 0
KHA3 281025Z 16009KT 21/19 A2967 RMK A01 T02120191  RH  088%=      5-min Rain = 0
KHA3 281026Z 16010KT 21/19 A2967 RMK A01 T02120191  RH  088%=      5-min Rain = 0
KHA3 281027Z 16009KT 21/19 A2967 RMK A01 T02120191  RH  088%=      5-min Rain = 0
KHA3 281028Z 16009KT 21/19 A2967 RMK A01 T02120191  RH  088%=      5-min Rain = 0
KHA3 281029Z 16009KT 21/19 A2967 RMK A01 T02120191  RH  088%=      5-min Rain = 0
KHA3 281030Z 16009KT 21/19 A2967 RMK A01 T02120192  RH  088%=      5-min Rain = 0
KHA3 281031Z 16009KT 21/19 A2967 RMK A01 T02110191  RH  089%=      5-min Rain = 0
KHA3 281032Z 16011KT 21/19 A2967 RMK A01 T02100191  RH  089%=      5-min Rain = 0
KHA3 281033Z 16009KT 21/19 A2967 RMK A01 T02110191  RH  089%=      5-min Rain = 0
KHA3 281034Z 16009KT 21/19 A2967 RMK A01 T02110191  RH  088%=      5-min Rain = 0
KHA3 281035Z 16010KT 21/19 A2967 RMK A01 T02110191  RH  089%=      5-min Rain = 0
KHA3 281036Z 16010KT 21/19 A2967 RMK A01 T02100191  RH  089%=      5-min Rain = 0
KHA3 281037Z 16011KT 21/19 A2967 RMK A01 T02100191  RH  089%=      5-min Rain = 0
KHA3 281038Z 16010KT 21/19 A2967 RMK A01 T02100191  RH  089%=      5-min Rain = 0
KHA3 281039Z 16010KT 21/19 A2967 RMK A01 T02100191  RH  089%=      5-min Rain = 0
KHA3 281040Z 16011KT 21/19 A2967 RMK A01 T02100191  RH  089%=      5-min Rain = 0
KHA3 281041Z 16010KT 21/19 A2967 RMK A01 T02100191  RH  089%=      5-min Rain = 0
KHA3 281042Z 16010KT 21/19 A2966 RMK A01 T02100191  RH  089%=      5-min Rain = 0
KHA3 281043Z 16010KT 21/19 A2966 RMK A01 T02100191  RH  089%=      5-min Rain = 0
KHA3 281044Z 16010KT 21/19 A2966 RMK A01 T02100191  RH  089%=      5-min Rain = 0
KHA3 281045Z 16011KT 21/19 A2966 RMK A01 T02090191  RH  089%=      5-min Rain = 0
KHA3 281046Z 16010KT 21/19 A2966 RMK A01 T02100191  RH  089%=      5-min Rain = 0
KHA3 281047Z 16010KT 21/19 A2966 RMK A01 T02100191  RH  089%=      5-min Rain = 0
KHA3 281048Z 16010KT 21/19 A2966 RMK A01 T02100191  RH  089%=      5-min Rain = 0
KHA3 281049Z 16011KT 21/19 A2966 RMK A01 T02100191  RH  089%=      5-min Rain = 0
KHA3 281050Z 16010KT 21/19 A2966 RMK A01 T02100191  RH  089%=      5-min Rain = 0
KHA3 281051Z 16010KT 21/19 A2966 RMK A01 T02100191  RH  089%=      5-min Rain = 0
KHA3 281052Z 16010KT 21/19 A2966 RMK A01 T02100191  RH  089%=      5-min Rain = 0
KHA3 281053Z 16010KT 21/19 A2966 RMK A01 T02100192  RH  089%=      5-min Rain = 0
KHA3 281054Z 16010KT 21/19 A2966 RMK A01 T02100191  RH  089%=      5-min Rain = 0
KHA3 281055Z 16010KT 21/19 A2966 RMK A01 T02100191  RH  089%=      5-min Rain = 0
KHA3 281056Z 16010KT 21/19 A2966 RMK A01 T02100192  RH  089%=      5-min Rain = 0
KHA3 281057Z 16009KT 21/19 A2966 RMK A01 T02100191  RH  089%=      5-min Rain = 0
KHA3 281058Z 15010KT 21/19 A2966 RMK A01 T02100191  RH  089%=      5-min Rain = 0
KHA3 281059Z 16009KT 21/19 A2966 RMK A01 T02100191  RH  089%=      5-min Rain = 0
KHA3 281100Z 16008KT 21/19 A2966 RMK A01 T02100191  RH  089%=      5-min Rain = 0
KHA3 281101Z 16009KT 21/19 A2966 RMK A01 T02090191  RH  089%=      5-min Rain = 0
KHA3 281102Z 16010KT 21/19 A2966 RMK A01 T02090191  RH  090%=      5-min Rain = 0
KHA3 281103Z 16010KT 21/19 A2966 RMK A01 T02090191  RH  090%=      5-min Rain = 0
KHA3 281104Z 16010KT 21/19 A2966 RMK A01 T02090191  RH  090%=      5-min Rain = 0
KHA3 281105Z 16009KT 21/19 A2966 RMK A01 T02090191  RH  089%=      5-min Rain = 0
KHA3 281106Z 16009KT 21/19 A2966 RMK A01 T02090191  RH  089%=      5-min Rain = 0
KHA3 281107Z 15009KT 21/19 A2966 RMK A01 T02090191  RH  089%=      5-min Rain = 0
KHA3 281108Z 15009KT 21/19 A2966 RMK A01 T02090192  RH  090%=      5-min Rain = 0
KHA3 281109Z 16010KT 21/19 A2966 RMK A01 T02090192  RH  090%=      5-min Rain = 0
KHA3 281110Z 16009KT 21/19 A2966 RMK A01 T02090192  RH  090%=      5-min Rain = 0
KHA3 281111Z 16009KT 21/19 A2966 RMK A01 T02100192  RH  090%=      5-min Rain = 0
KHA3 281112Z 15010KT 21/19 A2966 RMK A01 T02090191  RH  089%=      5-min Rain = 0
KHA3 281113Z 16010KT 21/19 A2966 RMK A01 T02100192  RH  089%=      5-min Rain = 0
KHA3 281114Z 16010KT 21/19 A2966 RMK A01 T02100192  RH  089%=      5-min Rain = 0
KHA3 281115Z 16010KT 21/19 A2966 RMK A01 T02100192  RH  089%=      5-min Rain = 0
KHA3 281116Z 15011KT 21/19 A2966 RMK A01 T02100192  RH  090%=      5-min Rain = 0
KHA3 281117Z 16010KT 21/19 A2966 RMK A01 T02100192  RH  090%=      5-min Rain = 0
KHA3 281118Z 16011KT 21/19 A2966 RMK A01 T02090192  RH  090%=      5-min Rain = 0
KHA3 281119Z 16012KT 21/19 A2966 RMK A01 T02090192  RH  090%=      5-min Rain = 0
KHA3 281120Z 16012KT 21/19 A2966 RMK A01 T02100192  RH  090%=      5-min Rain = 0
KHA3 281121Z 16011KT 21/19 A2966 RMK A01 T02100192  RH  089%=      5-min Rain = 0
KHA3 281122Z 16011KT 21/19 A2966 RMK A01 T02100192  RH  090%=      5-min Rain = 0
KHA3 281123Z 16012KT 21/19 A2966 RMK A01 T02100192  RH  090%=      5-min Rain = 0
KHA3 281124Z 16012KT 21/19 A2966 RMK A01 T02100192  RH  090%=      5-min Rain = 0
KHA3 281125Z 16012KT 21/19 A2966 RMK A01 T02100192  RH  090%=      5-min Rain = 0
KHA3 281126Z 16012KT 21/19 A2966 RMK A01 T02100192  RH  090%=      5-min Rain = 0
KHA3 281127Z 16011KT 21/19 A2966 RMK A01 T02100192  RH  090%=      5-min Rain = 0
KHA3 281128Z 16012KT 21/19 A2966 RMK A01 T02100193  RH  090%=      5-min Rain = 0
KHA3 281129Z 16010KT 21/19 A2966 RMK A01 T02100193  RH  090%=      5-min Rain = 0
KHA3 281130Z 16011KT 21/19 A2966 RMK A01 T02100192  RH  090%=      5-min Rain = 0
KHA3 281131Z 16010KT 21/19 A2966 RMK A01 T02100192  RH  090%=      5-min Rain = 0
KHA3 281132Z 16012KT 21/19 A2966 RMK A01 T02100193  RH  090%=      5-min Rain = 0
KHA3 281133Z 16012KT 21/19 A2966 RMK A01 T02110193  RH  089%=      5-min Rain = 0
KHA3 281134Z 16012KT 21/19 A2966 RMK A01 T02110193  RH  089%=      5-min Rain = 0
KHA3 281135Z 17013KT 21/19 A2966 RMK A01 T02110193  RH  089%=      5-min Rain = 0
KHA3 281136Z 16012KT 21/19 A2966 RMK A01 T02110193  RH  089%=      5-min Rain = 0
KHA3 281137Z 17011KT 21/19 A2966 RMK A01 T02110193  RH  089%=      5-min Rain = 0
KHA3 281138Z 16012KT 21/19 A2966 RMK A01 T02110193  RH  089%=      5-min Rain = 0
KHA3 281139Z 16011KT 21/19 A2966 RMK A01 T02110193  RH  090%=      5-min Rain = 0
KHA3 281140Z 16012KT 21/19 A2966 RMK A01 T02110194  RH  090%=      5-min Rain = 0
KHA3 281141Z 17012KT 21/19 A2966 RMK A01 T02110193  RH  090%=      5-min Rain = 0
KHA3 281142Z 17011KT 21/19 A2966 RMK A01 T02110193  RH  090%=      5-min Rain = 0
KHA3 281143Z 17011KT 21/19 A2966 RMK A01 T02110194  RH  090%=      5-min Rain = 0
KHA3 281144Z 17012KT 21/19 A2966 RMK A01 T02110193  RH  090%=      5-min Rain = 0
KHA3 281145Z 17013KT 21/19 A2966 RMK A01 T02110194  RH  090%=      5-min Rain = 0
KHA3 281146Z 17011KT 21/19 A2966 RMK A01 T02120194  RH  090%=      5-min Rain = 0
KHA3 281147Z 17011KT 21/19 A2966 RMK A01 T02120194  RH  089%=      5-min Rain = 0
KHA3 281148Z 17012KT 21/19 A2966 RMK A01 T02120194  RH  089%=      5-min Rain = 0
KHA3 281149Z 17012KT 21/19 A2967 RMK A01 T02120194  RH  089%=      5-min Rain = 0
KHA3 281150Z 17011KT 21/19 A2967 RMK A01 T02120194  RH  089%=      5-min Rain = 0
KHA3 281151Z 17013KT 21/19 A2967 RMK A01 T02130194  RH  089%=      5-min Rain = 0
KHA3 281152Z 17012KT 21/19 A2967 RMK A01 T02130194  RH  089%=      5-min Rain = 0
KHA3 281153Z 17012KT 21/19 A2967 RMK A01 T02130194  RH  089%=      5-min Rain = 0
KHA3 281154Z 17013KT 21/19 A2967 RMK A01 T02130194  RH  089%=      5-min Rain = 0
KHA3 281155Z 17012KT 21/20 A2967 RMK A01 T02130195  RH  089%=      5-min Rain = 0
KHA3 281156Z 17012KT 21/20 A2967 RMK A01 T02140195  RH  089%=      5-min Rain = 0
KHA3 281157Z 17011KT 21/20 A2967 RMK A01 T02140195  RH  089%=      5-min Rain = 0
KHA3 281158Z 17012KT 21/20 A2967 RMK A01 T02130195  RH  089%=      5-min Rain = 0
KHA3 281159Z 17013KT 21/20 A2967 RMK A01 T02130195  RH  089%=      5-min Rain = 0
KHA3 281200Z 17011KT 21/20 A2967 RMK A01 T02130195  RH  089%=      5-min Rain = 0
KHA3 281201Z 17012KT 21/20 A2967 RMK A01 T02140195  RH  089%=      5-min Rain = 0
KHA3 281202Z 17012KT 21/20 A2967 RMK A01 T02140195  RH  089%=      5-min Rain = 0
KHA3 281203Z 17013KT 21/20 A2967 RMK A01 T02140195  RH  089%=      5-min Rain = 0
KHA3 281204Z 17011KT 21/20 A2967 RMK A01 T02140195  RH  089%=      5-min Rain = 0
KHA3 281205Z 17011KT 22/20 A2967 RMK A01 T02150196  RH  089%=      5-min Rain = 0
KHA3 281206Z 17012KT 21/20 A2967 RMK A01 T02140196  RH  089%=      5-min Rain = 0
KHA3 281207Z 17013KT 21/20 A2967 RMK A01 T02140196  RH  089%=      5-min Rain = 0
KHA3 281208Z 17013KT 22/20 A2967 RMK A01 T02150196  RH  089%=      5-min Rain = 0
KHA3 281209Z 17011KT 22/20 A2967 RMK A01 T02150195  RH  089%=      5-min Rain = 0
KHA3 281210Z 17011KT 21/20 A2967 RMK A01 T02140195  RH  089%=      5-min Rain = 0
KHA3 281211Z 16012KT 21/20 A2967 RMK A01 T02140195  RH  089%=      5-min Rain = 0
KHA3 281212Z 17010KT 21/20 A2967 RMK A01 T02140195  RH  089%=      5-min Rain = 0
KHA3 281213Z 17011KT 22/20 A2967 RMK A01 T02150196  RH  089%=      5-min Rain = 0
KHA3 281214Z 17011KT 22/20 A2967 RMK A01 T02150196  RH  089%=      5-min Rain = 0
KHA3 281215Z 17012KT 22/20 A2967 RMK A01 T02160196  RH  089%=      5-min Rain = 0
KHA3 281216Z 17013KT 22/20 A2967 RMK A01 T02160196  RH  089%=      5-min Rain = 0
KHA3 281217Z 17010KT 22/20 A2967 RMK A01 T02170197  RH  088%=      5-min Rain = 0
KHA3 281218Z 17010KT 22/20 A2967 RMK A01 T02170196  RH  088%=      5-min Rain = 0
KHA3 281219Z 17012KT 22/20 A2967 RMK A01 T02170197  RH  088%=      5-min Rain = 0
KHA3 281220Z 17011KT 22/20 A2967 RMK A01 T02170197  RH  088%=      5-min Rain = 0
KHA3 281221Z 17012KT 22/20 A2967 RMK A01 T02170197  RH  088%=      5-min Rain = 0
KHA3 281222Z 17013KT 22/20 A2967 RMK A01 T02170197  RH  088%=      5-min Rain = 0
KHA3 281223Z 17013KT 22/20 A2967 RMK A01 T02180197  RH  088%=      5-min Rain = 0
KHA3 281224Z 17013KT 22/20 A2967 RMK A01 T02180197  RH  088%=      5-min Rain = 0
KHA3 281225Z 17012KT 22/20 A2967 RMK A01 T02180197  RH  088%=      5-min Rain = 0
KHA3 281226Z 17012KT 22/20 A2967 RMK A01 T02190197  RH  088%=      5-min Rain = 0
KHA3 281227Z 17012KT 22/20 A2967 RMK A01 T02190197  RH  088%=      5-min Rain = 0
KHA3 281228Z 17013KT 22/20 A2967 RMK A01 T02190198  RH  088%=      5-min Rain = 0
KHA3 281229Z 17012KT 22/20 A2967 RMK A01 T02190198  RH  088%=      5-min Rain = 0
KHA3 281230Z 17012KT 22/20 A2967 RMK A01 T02200198  RH  087%=      5-min Rain = 0
KHA3 281231Z 17013KT 22/20 A2967 RMK A01 T02210198  RH  087%=      5-min Rain = 0
KHA3 281232Z 17013KT 22/20 A2967 RMK A01 T02210199  RH  087%=      5-min Rain = 0
KHA3 281233Z 17012KT 22/20 A2967 RMK A01 T02220199  RH  087%=      5-min Rain = 0
KHA3 281234Z 16012KT 22/20 A2967 RMK A01 T02220199  RH  087%=      5-min Rain = 0
KHA3 281235Z 17013KT 22/20 A2967 RMK A01 T02220199  RH  087%=      5-min Rain = 0
KHA3 281236Z 17011KT 22/20 A2967 RMK A01 T02220199  RH  087%=      5-min Rain = 0
KHA3 281237Z 17013KT 22/20 A2967 RMK A01 T02230200  RH  087%=      5-min Rain = 0
KHA3 281238Z 17012KT 22/20 A2967 RMK A01 T02230200  RH  087%=      5-min Rain = 0
KHA3 281239Z 17012KT 22/20 A2968 RMK A01 T02230200  RH  086%=      5-min Rain = 0
KHA3 281240Z 17014KT 22/20 A2968 RMK A01 T02230200  RH  086%=      5-min Rain = 0
KHA3 281241Z 17014KT 22/20 A2968 RMK A01 T02240200  RH  086%=      5-min Rain = 0
KHA3 281242Z 17012KT 23/20 A2968 RMK A01 T02250200  RH  086%=      5-min Rain = 0
KHA3 281243Z 17013KT 23/20 A2968 RMK A01 T02250201  RH  086%=      5-min Rain = 0
KHA3 281244Z 17013KT 23/20 A2968 RMK A01 T02250200  RH  086%=      5-min Rain = 0
KHA3 281245Z 16013KT 23/20 A2968 RMK A01 T02250201  RH  086%=      5-min Rain = 0
KHA3 281246Z 17014KT 23/20 A2968 RMK A01 T02260201  RH  085%=      5-min Rain = 0
KHA3 281247Z 17015KT 23/20 A2968 RMK A01 T02270201  RH  085%=      5-min Rain = 0
KHA3 281248Z 16014KT 23/20 A2968 RMK A01 T02270201  RH  085%=      5-min Rain = 0
KHA3 281249Z 17014KT 23/20 A2968 RMK A01 T02270201  RH  085%=      5-min Rain = 0
KHA3 281250Z 17013KT 23/20 A2968 RMK A01 T02280201  RH  085%=      5-min Rain = 0
KHA3 281251Z 17013KT 23/20 A2968 RMK A01 T02280202  RH  085%=      5-min Rain = 0
KHA3 281252Z 17012KT 23/20 A2968 RMK A01 T02280201  RH  085%=      5-min Rain = 0
KHA3 281253Z 17013KT 23/20 A2968 RMK A01 T02290202  RH  085%=      5-min Rain = 0
KHA3 281254Z 17014KT 23/20 A2968 RMK A01 T02290202  RH  085%=      5-min Rain = 0
KHA3 281255Z 17013KT 23/20 A2968 RMK A01 T02290202  RH  085%=      5-min Rain = 0
KHA3 281256Z 17012KT 23/20 A2968 RMK A01 T02290202  RH  085%=      5-min Rain = 0
KHA3 281257Z 17012KT 23/20 A2968 RMK A01 T02300202  RH  085%=      5-min Rain = 0
KHA3 281258Z 17014KT 23/20 A2968 RMK A01 T02300203  RH  084%=      5-min Rain = 0
KHA3 281259Z 17015KT 23/20 A2968 RMK A01 T02310203  RH  084%=      5-min Rain = 0
KHA3 281300Z 17013KT 23/20 A2968 RMK A01 T02310203  RH  084%=      5-min Rain = 0
KHA3 281301Z 17014KT 23/20 A2968 RMK A01 T02320203  RH  084%=      5-min Rain = 0
KHA3 281302Z 17013KT 23/20 A2968 RMK A01 T02320204  RH  084%=      5-min Rain = 0
KHA3 281303Z 17014KT 23/20 A2968 RMK A01 T02330204  RH  084%=      5-min Rain = 0
KHA3 281304Z 17014KT 23/20 A2968 RMK A01 T02330204  RH  083%=      5-min Rain = 0
KHA3 281305Z 17014KT 23/20 A2968 RMK A01 T02340204  RH  083%=      5-min Rain = 0
KHA3 281306Z 16013KT 23/20 A2968 RMK A01 T02340203  RH  083%=      5-min Rain = 0
KHA3 281307Z 17013KT 23/20 A2968 RMK A01 T02340204  RH  083%=      5-min Rain = 0
KHA3 281308Z 17013KT 24/21 A2968 RMK A01 T02350205  RH  083%=      5-min Rain = 0
KHA3 281309Z 17012KT 24/20 A2968 RMK A01 T02350204  RH  083%=      5-min Rain = 0
KHA3 281310Z 17013KT 24/21 A2968 RMK A01 T02360205  RH  083%=      5-min Rain = 0
KHA3 281311Z 17013KT 24/21 A2968 RMK A01 T02370205  RH  083%=      5-min Rain = 0
KHA3 281312Z 17014KT 24/21 A2968 RMK A01 T02370206  RH  082%=      5-min Rain = 0
KHA3 281313Z 17016KT 24/21 A2968 RMK A01 T02380205  RH  082%=      5-min Rain = 0
KHA3 281314Z 17014KT 24/21 A2968 RMK A01 T02380205  RH  082%=      5-min Rain = 0
KHA3 281315Z 17015KT 24/21 A2968 RMK A01 T02390206  RH  082%=      5-min Rain = 0
KHA3 281316Z 18015KT 24/21 A2968 RMK A01 T02400206  RH  081%=      5-min Rain = 0
KHA3 281317Z 18014KT 24/21 A2968 RMK A01 T02400206  RH  081%=      5-min Rain = 0
KHA3 281318Z 18014KT 24/21 A2968 RMK A01 T02410206  RH  081%=      5-min Rain = 0
KHA3 281319Z 17014KT 24/21 A2968 RMK A01 T02410206  RH  081%=      5-min Rain = 0
KHA3 281320Z 17015KT 24/21 A2968 RMK A01 T02410206  RH  081%=      5-min Rain = 0
KHA3 281321Z 17014KT 24/21 A2968 RMK A01 T02410206  RH  081%=      5-min Rain = 0
KHA3 281322Z 18014KT 24/21 A2968 RMK A01 T02420207  RH  081%=      5-min Rain = 0
KHA3 281323Z 18012KT 24/21 A2968 RMK A01 T02420207  RH  081%=      5-min Rain = 0
KHA3 281324Z 17014KT 24/21 A2968 RMK A01 T02430207  RH  081%=      5-min Rain = 0
KHA3 281325Z 17013KT 24/21 A2968 RMK A01 T02430207  RH  080%=      5-min Rain = 0
KHA3 281326Z 17013KT 24/21 A2968 RMK A01 T02430207  RH  080%=      5-min Rain = 0
KHA3 281327Z 17014KT 24/21 A2968 RMK A01 T02430208  RH  080%=      5-min Rain = 0
KHA3 281328Z 17012KT 24/21 A2968 RMK A01 T02430207  RH  080%=      5-min Rain = 0
KHA3 281329Z 18013G18KT 24/21 A2968 RMK A01 T02440209  RH  081%=      5-min Rain = 0
KHA3 281330Z 17014KT 24/21 A2968 RMK A01 T02440208  RH  080%=      5-min Rain = 0
KHA3 281331Z 18013KT 24/21 A2968 RMK A01 T02440208  RH  080%=      5-min Rain = 0
KHA3 281332Z 17014KT 24/21 A2968 RMK A01 T02440208  RH  080%=      5-min Rain = 0
KHA3 281333Z 17012KT 24/21 A2968 RMK A01 T02440209  RH  081%=      5-min Rain = 0
KHA3 281334Z 18012KT 25/21 A2968 RMK A01 T02450209  RH  080%=      5-min Rain = 0
KHA3 281335Z 18013KT 25/21 A2968 RMK A01 T02460209  RH  080%=      5-min Rain = 0
KHA3 281336Z 17012KT 25/21 A2968 RMK A01 T02460209  RH  080%=      5-min Rain = 0
KHA3 281337Z 17012KT 25/21 A2968 RMK A01 T02460210  RH  081%=      5-min Rain = 0
KHA3 281338Z 17014KT 25/21 A2968 RMK A01 T02470209  RH  080%=      5-min Rain = 0
KHA3 281339Z 17010KT 25/21 A2968 RMK A01 T02470211  RH  080%=      5-min Rain = 0
KHA3 281340Z 18015KT 25/21 A2968 RMK A01 T02470211  RH  080%=      5-min Rain = 0
KHA3 281341Z 18012KT 25/21 A2968 RMK A01 T02480209  RH  079%=      5-min Rain = 0
KHA3 281342Z 17013KT 25/21 A2968 RMK A01 T02470211  RH  080%=      5-min Rain = 0
KHA3 281343Z 17012G19KT 25/21 A2968 RMK A01 T02480211  RH  080%=      5-min Rain = 0
KHA3 281344Z 19016KT 25/21 A2968 RMK A01 T02480209  RH  079%=      5-min Rain = 0
KHA3 281345Z 17012KT 25/21 A2968 RMK A01 T02480210  RH  079%=      5-min Rain = 0
KHA3 281346Z 18011KT 25/21 A2968 RMK A01 T02490211  RH  079%=      5-min Rain = 0
KHA3 281347Z 18011KT 25/21 A2968 RMK A01 T02490212  RH  080%=      5-min Rain = 0
KHA3 281348Z 17013KT 25/21 A2968 RMK A01 T02500211  RH  079%=      5-min Rain = 0
KHA3 281349Z 17014KT 25/21 A2968 RMK A01 T02500211  RH  079%=      5-min Rain = 0
KHA3 281350Z 17014KT 25/21 A2968 RMK A01 T02500211  RH  079%=      5-min Rain = 0
KHA3 281351Z 17014KT 25/21 A2968 RMK A01 T02500211  RH  079%=      5-min Rain = 0
KHA3 281352Z 18014KT 25/21 A2968 RMK A01 T02500211  RH  079%=      5-min Rain = 0
KHA3 281353Z 18013KT 25/21 A2968 RMK A01 T02500210  RH  079%=      5-min Rain = 0
KHA3 281354Z 18013KT 25/21 A2968 RMK A01 T02500211  RH  079%=      5-min Rain = 0
KHA3 281355Z 18014KT 25/21 A2968 RMK A01 T02510211  RH  078%=      5-min Rain = 0
KHA3 281356Z 19014KT 25/21 A2968 RMK A01 T02510211  RH  078%=      5-min Rain = 0
KHA3 281357Z 17015KT 25/21 A2968 RMK A01 T02510211  RH  078%=      5-min Rain = 0
KHA3 281358Z 18018KT 25/21 A2968 RMK A01 T02520210  RH  077%=      5-min Rain = 0
KHA3 281359Z 18014KT 25/21 A2968 RMK A01 T02520210  RH  078%=      5-min Rain = 0
KHA3 281400Z 19014KT 25/21 A2968 RMK A01 T02530212  RH  078%=      5-min Rain = 0
KHA3 281401Z 19015KT 25/21 A2968 RMK A01 T02540211  RH  077%=      5-min Rain = 0
KHA3 281402Z 18013KT 26/21 A2968 RMK A01 T02550212  RH  077%=      5-min Rain = 0
KHA3 281403Z 19017KT 26/21 A2968 RMK A01 T02550212  RH  077%=      5-min Rain = 0
KHA3 281404Z 19016KT 26/21 A2968 RMK A01 T02560211  RH  076%=      5-min Rain = 0
KHA3 281405Z 19012KT 26/21 A2968 RMK A01 T02550212  RH  077%=      5-min Rain = 0
KHA3 281406Z 19013KT 26/21 A2968 RMK A01 T02560214  RH  077%=      5-min Rain = 0
KHA3 281407Z 18016KT 26/21 A2968 RMK A01 T02570213  RH  077%=      5-min Rain = 0
KHA3 281408Z 19017KT 26/21 A2968 RMK A01 T02580211  RH  076%=      5-min Rain = 0
KHA3 281409Z 20017KT 26/21 A2968 RMK A01 T02560211  RH  076%=      5-min Rain = 0
KHA3 281410Z 19016KT 26/21 A2968 RMK A01 T02560212  RH  077%=      5-min Rain = 0
KHA3 281411Z 18017G23KT 26/21 A2968 RMK A01 T02560212  RH  077%=      5-min Rain = 0
KHA3 281412Z 19015G20KT 26/21 A2968 RMK A01 T02570211  RH  076%=      5-min Rain = 0
KHA3 281413Z 19018G24KT 26/21 A2968 RMK A01 T02560211  RH  076%=      5-min Rain = 0
KHA3 281414Z 18020KT 26/21 A2968 RMK A01 T02570210  RH  075%=      5-min Rain = 0
KHA3 281415Z 19020KT 26/21 A2968 RMK A01 T02560209  RH  075%=      5-min Rain = 0
KHA3 281416Z 19020KT 26/21 A2968 RMK A01 T02560210  RH  076%=      5-min Rain = 0
KHA3 281417Z 19019KT 26/21 A2968 RMK A01 T02560210  RH  076%=      5-min Rain = 0
KHA3 281418Z 20019KT 26/21 A2968 RMK A01 T02560209  RH  076%=      5-min Rain = 0
KHA3 281419Z 19019KT 26/21 A2968 RMK A01 T02560210  RH  076%=      5-min Rain = 0
KHA3 281420Z 20018KT 26/21 A2968 RMK A01 T02560211  RH  076%=      5-min Rain = 0
KHA3 281421Z 20017KT 26/21 A2968 RMK A01 T02570211  RH  076%=      5-min Rain = 0
KHA3 281422Z 19013G18KT 26/21 A2968 RMK A01 T02570212  RH  076%=      5-min Rain = 0
KHA3 281423Z 20019KT 26/21 A2968 RMK A01 T02580212  RH  076%=      5-min Rain = 0
KHA3 281424Z 20016G21KT 26/21 A2968 RMK A01 T02580211  RH  075%=      5-min Rain = 0
KHA3 281425Z 20014KT 26/21 A2968 RMK A01 T02580213  RH  076%=      5-min Rain = 0
KHA3 281426Z 20017KT 26/21 A2968 RMK A01 T02590213  RH  076%=      5-min Rain = 0
KHA3 281427Z 20015KT 26/21 A2968 RMK A01 T02600213  RH  075%=      5-min Rain = 0
KHA3 281428Z 19015KT 26/21 A2968 RMK A01 T02600212  RH  075%=      5-min Rain = 0
KHA3 281429Z 19017KT 26/21 A2968 RMK A01 T02600213  RH  075%=      5-min Rain = 0
KHA3 281430Z 19018KT 26/21 A2968 RMK A01 T02600212  RH  075%=      5-min Rain = 0
KHA3 281431Z 20017KT 26/21 A2968 RMK A01 T02600212  RH  075%=      5-min Rain = 0
KHA3 281432Z 20015G20KT 26/21 A2968 RMK A01 T02600212  RH  075%=      5-min Rain = 0
KHA3 281433Z 20016KT 26/21 A2968 RMK A01 T02610214  RH  075%=      5-min Rain = 0
KHA3 281434Z 19015KT 26/21 A2968 RMK A01 T02610213  RH  075%=      5-min Rain = 0
KHA3 281435Z 20016KT 26/22 A2968 RMK A01 T02620215  RH  075%=      5-min Rain = 0
KHA3 281436Z 20016KT 26/21 A2968 RMK A01 T02620213  RH  074%=      5-min Rain = 0
KHA3 281437Z 19018KT 26/21 A2968 RMK A01 T02620213  RH  074%=      5-min Rain = 0
KHA3 281438Z 19017KT 26/21 A2968 RMK A01 T02610212  RH  074%=      5-min Rain = 0
KHA3 281439Z 19018KT 26/21 A2968 RMK A01 T02610212  RH  074%=      5-min Rain = 0
KHA3 281440Z 20013G18KT 26/21 A2968 RMK A01 T02620214  RH  075%=      5-min Rain = 0
KHA3 281441Z 20014KT 26/22 A2968 RMK A01 T02630215  RH  075%=      5-min Rain = 0
KHA3 281442Z 20017KT 26/21 A2968 RMK A01 T02640214  RH  074%=      5-min Rain = 0
KHA3 281443Z 20017KT 26/21 A2968 RMK A01 T02640213  RH  074%=      5-min Rain = 0
KHA3 281444Z 21016KT 26/22 A2968 RMK A01 T02630215  RH  075%=      5-min Rain = 0
KHA3 281445Z 19017KT 26/21 A2968 RMK A01 T02630213  RH  074%=      5-min Rain = 0
KHA3 281446Z 20019KT 26/21 A2968 RMK A01 T02640212  RH  073%=      5-min Rain = 0
KHA3 281447Z 21015KT 26/21 A2968 RMK A01 T02630214  RH  075%=      5-min Rain = 0
KHA3 281448Z 20013KT 26/21 A2968 RMK A01 T02630214  RH  074%=      5-min Rain = 0
KHA3 281449Z 21016KT 27/22 A2968 RMK A01 T02650215  RH  074%=      5-min Rain = 0
KHA3 281450Z 20017G22KT 27/21 A2968 RMK A01 T02650213  RH  073%=      5-min Rain = 0
KHA3 281451Z 21019KT 27/21 A2968 RMK A01 T02650211  RH  072%=      5-min Rain = 0
KHA3 281452Z 20019KT 26/21 A2968 RMK A01 T02640211  RH  073%=      5-min Rain = 0
KHA3 281453Z 21019KT 26/21 A2968 RMK A01 T02640212  RH  073%=      5-min Rain = 0
KHA3 281454Z 20019KT 27/21 A2968 RMK A01 T02650213  RH  073%=      5-min Rain = 0
KHA3 281455Z 20018KT 27/21 A2968 RMK A01 T02650212  RH  073%=      5-min Rain = 0
KHA3 281456Z 21017KT 27/21 A2968 RMK A01 T02660212  RH  073%=      5-min Rain = 0
KHA3 281457Z 21014KT 27/21 A2968 RMK A01 T02650213  RH  073%=      5-min Rain = 0
KHA3 281458Z 22013KT 27/21 A2968 RMK A01 T02670214  RH  073%=      5-min Rain = 0
KHA3 281459Z 21015G22KT 27/22 A2968 RMK A01 T02690217  RH  073%=      5-min Rain = 0
KHA3 281500Z 21016KT 27/21 A2968 RMK A01 T02690213  RH  071%=      5-min Rain = 0
KHA3 281501Z 21017KT 27/21 A2968 RMK A01 T02680213  RH  072%=      5-min Rain = 0
KHA3 281502Z 21019KT 27/21 A2968 RMK A01 T02680211  RH  071%=      5-min Rain = 0
KHA3 281503Z 20017KT 27/21 A2968 RMK A01 T02670211  RH  071%=      5-min Rain = 0
KHA3 281504Z 20018KT 27/21 A2968 RMK A01 T02670211  RH  072%=      5-min Rain = 0
KHA3 281505Z 21016G22KT 27/21 A2968 RMK A01 T02660211  RH  072%=      5-min Rain = 0
KHA3 281506Z 22017KT 27/21 A2968 RMK A01 T02660211  RH  072%=      5-min Rain = 0
KHA3 281507Z 22020KT 27/21 A2968 RMK A01 T02670210  RH  071%=      5-min Rain = 0
KHA3 281508Z 22017KT 27/21 A2968 RMK A01 T02670209  RH  071%=      5-min Rain = 0
KHA3 281509Z 22014KT 27/21 A2968 RMK A01 T02670211  RH  072%=      5-min Rain = 0
KHA3 281510Z 22017KT 27/21 A2968 RMK A01 T02670209  RH  071%=      5-min Rain = 0
KHA3 281511Z 22017KT 27/21 A2968 RMK A01 T02670209  RH  071%=      5-min Rain = 0
KHA3 281512Z 21014KT 27/21 A2968 RMK A01 T02660211  RH  071%=      5-min Rain = 0
KHA3 281513Z 21018KT 27/21 A2968 RMK A01 T02680211  RH  071%=      5-min Rain = 0
KHA3 281514Z 22014G20KT 27/21 A2968 RMK A01 T02690208  RH  069%=      5-min Rain = 0
KHA3 281515Z 22017KT 27/21 A2968 RMK A01 T02690210  RH  070%=      5-min Rain = 0
KHA3 281516Z 21017KT 27/21 A2968 RMK A01 T02690209  RH  070%=      5-min Rain = 0
KHA3 281517Z 21016KT 27/21 A2968 RMK A01 T02690207  RH  069%=      5-min Rain = 0
KHA3 281518Z 21012KT 27/21 A2968 RMK A01 T02700208  RH  069%=      5-min Rain = 0
KHA3 281519Z 21016KT 27/21 A2968 RMK A01 T02710209  RH  069%=      5-min Rain = 0
KHA3 281520Z 22014G19KT 27/21 A2968 RMK A01 T02710211  RH  070%=      5-min Rain = 0
KHA3 281521Z 21014KT 27/21 A2968 RMK A01 T02720211  RH  069%=      5-min Rain = 0
KHA3 281522Z 21016KT 27/21 A2968 RMK A01 T02720210  RH  069%=      5-min Rain = 0
KHA3 281523Z 21015KT 27/21 A2968 RMK A01 T02720211  RH  069%=      5-min Rain = 0
KHA3 281524Z 21015KT 27/21 A2968 RMK A01 T02720211  RH  069%=      5-min Rain = 0
KHA3 281525Z 21015KT 27/21 A2968 RMK A01 T02720212  RH  069%=      5-min Rain = 0
KHA3 281526Z 21015KT 27/21 A2968 RMK A01 T02720211  RH  069%=      5-min Rain = 0
KHA3 281527Z 22014KT 27/21 A2968 RMK A01 T02720212  RH  070%=      5-min Rain = 0
KHA3 281528Z 21013KT 27/21 A2968 RMK A01 T02730210  RH  068%=      5-min Rain = 0
KHA3 281529Z 21013KT 27/21 A2968 RMK A01 T02730212  RH  069%=      5-min Rain = 0
KHA3 281530Z 23016KT 28/21 A2968 RMK A01 T02750209  RH  067%=      5-min Rain = 0
KHA3 281531Z 22013G18KT 27/21 A2968 RMK A01 T02740205  RH  066%=      5-min Rain = 0
KHA3 281532Z 23014KT 27/21 A2968 RMK A01 T02740206  RH  067%=      5-min Rain = 0
KHA3 281533Z 23015KT 27/21 A2968 RMK A01 T02730208  RH  067%=      5-min Rain = 0
KHA3 281534Z 23012KT 27/21 A2968 RMK A01 T02730208  RH  067%=      5-min Rain = 0
KHA3 281535Z 22011KT 27/21 A2968 RMK A01 T02740209  RH  068%=      5-min Rain = 0
KHA3 281536Z 22013KT 28/21 A2968 RMK A01 T02750208  RH  067%=      5-min Rain = 0
KHA3 281537Z 22012KT 28/21 A2968 RMK A01 T02750208  RH  067%=      5-min Rain = 0
KHA3 281538Z 22012KT 28/21 A2968 RMK A01 T02760208  RH  067%=      5-min Rain = 0
KHA3 281539Z 22013KT 28/21 A2968 RMK A01 T02760210  RH  067%=      5-min Rain = 0
KHA3 281540Z 23012KT 28/21 A2968 RMK A01 T02770210  RH  067%=      5-min Rain = 0
KHA3 281541Z 23011KT 28/21 A2968 RMK A01 T02770208  RH  066%=      5-min Rain = 0
KHA3 281542Z 23012KT 28/21 A2968 RMK A01 T02770208  RH  066%=      5-min Rain = 0
KHA3 281543Z 22012KT 28/21 A2968 RMK A01 T02780205  RH  065%=      5-min Rain = 0
KHA3 281544Z 21013KT 28/21 A2968 RMK A01 T02770209  RH  066%=      5-min Rain = 0
KHA3 281545Z 20013KT 28/21 A2968 RMK A01 T02770207  RH  066%=      5-min Rain = 0
KHA3 281546Z 21013KT 28/21 A2968 RMK A01 T02770209  RH  066%=      5-min Rain = 0
KHA3 281547Z 22014KT 28/21 A2968 RMK A01 T02770210  RH  067%=      5-min Rain = 0
KHA3 281548Z 22014KT 28/21 A2968 RMK A01 T02790206  RH  065%=      5-min Rain = 0
KHA3 281549Z 21014KT 28/20 A2968 RMK A01 T02790204  RH  064%=      5-min Rain = 0
KHA3 281550Z 21015KT 28/21 A2968 RMK A01 T02790206  RH  064%=      5-min Rain = 0
KHA3 281551Z 22010KT 28/21 A2968 RMK A01 T02790207  RH  065%=      5-min Rain = 0
KHA3 281552Z 23013KT 28/21 A2968 RMK A01 T02790206  RH  064%=      5-min Rain = 0
KHA3 281553Z 22013KT 28/21 A2968 RMK A01 T02790205  RH  064%=      5-min Rain = 0
KHA3 281554Z 23012KT 28/21 A2968 RMK A01 T02780206  RH  065%=      5-min Rain = 0
KHA3 281555Z 23013KT 28/20 A2968 RMK A01 T02790203  RH  063%=      5-min Rain = 0
KHA3 281556Z 23012KT 28/21 A2968 RMK A01 T02800208  RH  065%=      5-min Rain = 0
KHA3 281557Z 25011KT 28/20 A2968 RMK A01 T02820203  RH  062%=      5-min Rain = 0
KHA3 281558Z 24013KT 28/20 A2968 RMK A01 T02830203  RH  062%=      5-min Rain = 0
KHA3 281559Z 23011KT 28/20 A2968 RMK A01 T02830203  RH  062%=      5-min Rain = 0
KHA3 281600Z 23011KT 28/20 A2968 RMK A01 T02820202  RH  062%=      5-min Rain = 0
KHA3 281601Z 23013KT 28/20 A2968 RMK A01 T02820204  RH  062%=      5-min Rain = 0
KHA3 281602Z 24012KT 28/20 A2968 RMK A01 T02830200  RH  061%=      5-min Rain = 0
KHA3 281603Z 23010KT 28/20 A2968 RMK A01 T02830204  RH  062%=      5-min Rain = 0
KHA3 281604Z 21009KT 28/20 A2968 RMK A01 T02830204  RH  062%=      5-min Rain = 0
KHA3 281605Z 21011KT 29/20 A2968 RMK A01 T02850204  RH  062%=      5-min Rain = 0
KHA3 281606Z 21010KT 29/21 A2968 RMK A01 T02850205  RH  062%=      5-min Rain = 0
KHA3 281607Z 22011KT 29/20 A2968 RMK A01 T02860202  RH  061%=      5-min Rain = 0
KHA3 281608Z 22010KT 29/20 A2968 RMK A01 T02860203  RH  061%=      5-min Rain = 0
KHA3 281609Z 24011KT 29/20 A2967 RMK A01 T02860196  RH  058%=      5-min Rain = 0
KHA3 281610Z 24010KT 29/19 A2968 RMK A01 T02870192  RH  057%=      5-min Rain = 0
KHA3 281611Z 22012KT 29/19 A2968 RMK A01 T02870194  RH  057%=      5-min Rain = 0
KHA3 281612Z 22010KT 29/19 A2968 RMK A01 T02860191  RH  056%=      5-min Rain = 0
KHA3 281613Z 23011KT 29/19 A2968 RMK A01 T02850192  RH  057%=      5-min Rain = 0
KHA3 281614Z 24010KT 29/19 A2968 RMK A01 T02850190  RH  056%=      5-min Rain = 0
KHA3 281615Z 23009KT 28/20 A2968 RMK A01 T02840195  RH  059%=      5-min Rain = 0
KHA3 281616Z 25014KT 29/19 A2968 RMK A01 T02870187  RH  055%=      5-min Rain = 0
KHA3 281617Z 25014KT 29/18 A2968 RMK A01 T02880178  RH  051%=      5-min Rain = 0
KHA3 281618Z 25012KT 29/18 A2968 RMK A01 T02870179  RH  052%=      5-min Rain = 0
KHA3 281619Z 23011KT 29/18 A2968 RMK A01 T02870180  RH  053%=      5-min Rain = 0
KHA3 281620Z 24011KT 29/18 A2968 RMK A01 T02870179  RH  052%=      5-min Rain = 0
KHA3 281621Z 25009KT 29/18 A2968 RMK A01 T02870182  RH  053%=      5-min Rain = 0
KHA3 281622Z 23011KT 29/18 A2968 RMK A01 T02870180  RH  052%=      5-min Rain = 0
KHA3 281623Z 24013KT 29/18 A2968 RMK A01 T02880180  RH  052%=      5-min Rain = 0
KHA3 281624Z 24012KT 29/19 A2968 RMK A01 T02880185  RH  054%=      5-min Rain = 0
KHA3 281625Z 25011KT 29/18 A2968 RMK A01 T02870184  RH  053%=      5-min Rain = 0
KHA3 281626Z 24012KT 29/19 A2968 RMK A01 T02870186  RH  054%=      5-min Rain = 0
KHA3 281627Z 25012KT 29/19 A2968 RMK A01 T02880189  RH  055%=      5-min Rain = 0
KHA3 281628Z 23012KT 29/19 A2968 RMK A01 T02890186  RH  054%=      5-min Rain = 0
KHA3 281629Z 24010KT 29/19 A2968 RMK A01 T02890186  RH  054%=      5-min Rain = 0
KHA3 281630Z 25010KT 29/19 A2968 RMK A01 T02890190  RH  055%=      5-min Rain = 0
KHA3 281631Z 24008KT 29/19 A2968 RMK A01 T02910193  RH  056%=      5-min Rain = 0
KHA3 281632Z 23011KT 29/17 A2968 RMK A01 T02940174  RH  048%=      5-min Rain = 0
KHA3 281633Z 24010KT 30/18 A2968 RMK A01 T02960180  RH  050%=      5-min Rain = 0
KHA3 281634Z 25009KT 30/18 A2968 RMK A01 T02960180  RH  050%=      5-min Rain = 0
KHA3 281635Z 24008KT 29/18 A2968 RMK A01 T02940178  RH  050%=      5-min Rain = 0
KHA3 281636Z 24010KT 29/18 A2968 RMK A01 T02920183  RH  052%=      5-min Rain = 0
KHA3 281637Z 25013KT 29/18 A2968 RMK A01 T02940183  RH  051%=      5-min Rain = 0
KHA3 281638Z 24009KT 29/18 A2968 RMK A01 T02940184  RH  052%=      5-min Rain = 0
KHA3 281639Z 23012KT 29/19 A2968 RMK A01 T02930187  RH  053%=      5-min Rain = 0
KHA3 281640Z 25010KT 29/18 A2968 RMK A01 T02930183  RH  052%=      5-min Rain = 0
KHA3 281641Z 25009KT 29/19 A2968 RMK A01 T02910186  RH  053%=      5-min Rain = 0
KHA3 281642Z 23009KT 29/19 A2968 RMK A01 T02910186  RH  053%=      5-min Rain = 0
KHA3 281643Z 25011KT 29/18 A2968 RMK A01 T02930177  RH  050%=      5-min Rain = 0
KHA3 281644Z 26011KT 30/17 A2968 RMK A01 T02950171  RH  047%=      5-min Rain = 0
KHA3 281645Z 27011KT 30/17 A2969 RMK A01 T02960166  RH  046%=      5-min Rain = 0
KHA3 281646Z 27009KT 30/16 A2969 RMK A01 T02960161  RH  044%=      5-min Rain = 0
KHA3 281647Z 26007KT 30/15 A2969 RMK A01 T02960151  RH  041%=      5-min Rain = 0
KHA3 281648Z 25008KT 30/17 A2969 RMK A01 T02960166  RH  046%=      5-min Rain = 0
KHA3 281649Z 26008KT 30/17 A2969 RMK A01 T02960173  RH  047%=      5-min Rain = 0
KHA3 281650Z 26010KT 30/17 A2969 RMK A01 T02960171  RH  047%=      5-min Rain = 0
KHA3 281651Z 25011KT 30/17 A2969 RMK A01 T02950169  RH  046%=      5-min Rain = 0
KHA3 281652Z 24010KT 30/17 A2969 RMK A01 T02950169  RH  047%=      5-min Rain = 0
KHA3 281653Z 26012KT 30/17 A2969 RMK A01 T02950168  RH  046%=      5-min Rain = 0
KHA3 281654Z 26011KT 30/17 A2969 RMK A01 T02950168  RH  046%=      5-min Rain = 0
KHA3 281655Z 25010KT 30/17 A2969 RMK A01 T02950166  RH  046%=      5-min Rain = 0
KHA3 281656Z 24011KT 29/16 A2969 RMK A01 T02940164  RH  045%=      5-min Rain = 0
KHA3 281657Z 24009KT 30/16 A2969 RMK A01 T02950164  RH  045%=      5-min Rain = 0
KHA3 281658Z 24010KT 29/17 A2969 RMK A01 T02940171  RH  048%=      5-min Rain = 0
KHA3 281659Z 24007KT 29/17 A2968 RMK A01 T02940170  RH  047%=      5-min Rain = 0
KHA3 281700Z 25009KT 29/17 A2968 RMK A01 T02940173  RH  048%=      5-min Rain = 0
KHA3 281701Z 25009KT 30/17 A2969 RMK A01 T02950173  RH  048%=      5-min Rain = 0
KHA3 281702Z 23009KT 30/17 A2969 RMK A01 T02970167  RH  046%=      5-min Rain = 0
KHA3 281703Z 24007KT 30/17 A2969 RMK A01 T02970165  RH  045%=      5-min Rain = 0
KHA3 281704Z 24008KT 30/17 A2969 RMK A01 T02970168  RH  046%=      5-min Rain = 0
KHA3 281705Z 24010KT 30/17 A2969 RMK A01 T02970168  RH  046%=      5-min Rain = 0
KHA3 281706Z 25011KT 30/17 A2969 RMK A01 T02970167  RH  046%=      5-min Rain = 0
KHA3 281707Z 25012KT 30/17 A2969 RMK A01 T02970167  RH  046%=      5-min Rain = 0
KHA3 281708Z 24011KT 30/16 A2969 RMK A01 T02980162  RH  044%=      5-min Rain = 0
KHA3 281709Z 24010KT 30/16 A2969 RMK A01 T02980157  RH  043%=      5-min Rain = 0
KHA3 281710Z 25011KT 30/16 A2969 RMK A01 T02980161  RH  044%=      5-min Rain = 0
KHA3 281711Z 25010KT 30/16 A2969 RMK A01 T02980162  RH  044%=      5-min Rain = 0
KHA3 281712Z 26010KT 30/16 A2969 RMK A01 T03000155  RH  042%=      5-min Rain = 0
KHA3 281713Z 25007KT 30/16 A2969 RMK A01 T02990158  RH  042%=      5-min Rain = 0
KHA3 281714Z 25010KT 30/17 A2969 RMK A01 T02990165  RH  044%=      5-min Rain = 0
KHA3 281715Z 25010KT 30/17 A2969 RMK A01 T03000165  RH  044%=      5-min Rain = 0
KHA3 281716Z 24009KT 30/16 A2969 RMK A01 T03000160  RH  043%=      5-min Rain = 0
KHA3 281717Z 25007KT 30/16 A2969 RMK A01 T02990158  RH  043%=      5-min Rain = 0
KHA3 281718Z 26005KT 30/17 A2969 RMK A01 T02980166  RH  045%=      5-min Rain = 0
KHA3 281719Z 27009KT 30/17 A2969 RMK A01 T03000174  RH  047%=      5-min Rain = 0
KHA3 281720Z 25010KT 30/16 A2969 RMK A01 T03030160  RH  042%=      5-min Rain = 0
KHA3 281721Z 25009KT 30/15 A2969 RMK A01 T03020152  RH  040%=      5-min Rain = 0
KHA3 281722Z 26007KT 30/16 A2969 RMK A01 T03010159  RH  042%=      5-min Rain = 0
KHA3 281723Z 28009KT 30/17 A2969 RMK A01 T03010166  RH  044%=      5-min Rain = 0
KHA3 281724Z 29008KT 30/16 A2969 RMK A01 T03020156  RH  041%=      5-min Rain = 0
KHA3 281725Z 26006KT 30/16 A2969 RMK A01 T03010162  RH  043%=      5-min Rain = 0
KHA3 281726Z 23007KT 30/16 A2969 RMK A01 T03010164  RH  044%=      5-min Rain = 0
KHA3 281727Z 23008KT 30/17 A2969 RMK A01 T03020165  RH  044%=      5-min Rain = 0
KHA3 281728Z 24009KT 30/17 A2969 RMK A01 T03030166  RH  044%=      5-min Rain = 0
KHA3 281729Z 25010KT 30/16 A2969 RMK A01 T03030160  RH  042%=      5-min Rain = 0
KHA3 281730Z 27010KT 30/15 A2969 RMK A01 T03030153  RH  040%=      5-min Rain = 0
KHA3 281731Z 28010KT 30/15 A2969 RMK A01 T03030152  RH  040%=      5-min Rain = 0
KHA3 281732Z 28010KT 30/15 A2969 RMK A01 T03030151  RH  040%=      5-min Rain = 0
KHA3 281733Z 28008KT 30/16 A2969 RMK A01 T03040155  RH  041%=      5-min Rain = 0
KHA3 281734Z 26008KT 31/15 A2969 RMK A01 T03050154  RH  040%=      5-min Rain = 0
KHA3 281735Z 27010KT 31/15 A2969 RMK A01 T03050149  RH  039%=      5-min Rain = 0
KHA3 281736Z 26009KT 31/16 A2969 RMK A01 T03050164  RH  042%=      5-min Rain = 0
KHA3 281737Z 26007KT 31/16 A2969 RMK A01 T03050158  RH  041%=      5-min Rain = 0
KHA3 281738Z 28007KT 31/17 A2969 RMK A01 T03050168  RH  044%=      5-min Rain = 0
KHA3 281739Z 28010KT 31/16 A2969 RMK A01 T03060157  RH  041%=      5-min Rain = 0
KHA3 281740Z 28011KT 31/14 A2969 RMK A01 T03050142  RH  037%=      5-min Rain = 0
KHA3 281741Z 28008KT 31/15 A2969 RMK A01 T03050149  RH  039%=      5-min Rain = 0
KHA3 281742Z 26007KT 31/14 A2969 RMK A01 T03050143  RH  037%=      5-min Rain = 0
KHA3 281743Z 28007KT 31/15 A2969 RMK A01 T03050147  RH  038%=      5-min Rain = 0
KHA3 281744Z 27008KT 31/14 A2969 RMK A01 T03060140  RH  036%=      5-min Rain = 0
KHA3 281745Z 26007KT 31/16 A2969 RMK A01 T03060157  RH  041%=      5-min Rain = 0
KHA3 281746Z 27008KT 31/16 A2969 RMK A01 T03070160  RH  041%=      5-min Rain = 0
KHA3 281747Z 26006KT 31/17 A2969 RMK A01 T03070169  RH  043%=      5-min Rain = 0
KHA3 281748Z 25005KT 31/16 A2969 RMK A01 T03080164  RH  042%=      5-min Rain = 0
KHA3 281749Z 25005KT 31/15 A2969 RMK A01 T03090154  RH  039%=      5-min Rain = 0
KHA3 281750Z 26005KT 31/16 A2969 RMK A01 T03080164  RH  042%=      5-min Rain = 0
KHA3 281751Z 26004KT 31/16 A2969 RMK A01 T03080158  RH  040%=      5-min Rain = 0
KHA3 281752Z 28007KT 31/16 A2969 RMK A01 T03080162  RH  042%=      5-min Rain = 0
KHA3 281753Z 29010KT 31/15 A2969 RMK A01 T03080147  RH  038%=      5-min Rain = 0
KHA3 281754Z 30009KT 31/15 A2969 RMK A01 T03080148  RH  038%=      5-min Rain = 0
KHA3 281755Z 29009KT 31/15 A2969 RMK A01 T03070152  RH  039%=      5-min Rain = 0
KHA3 281756Z 29010KT 31/15 A2969 RMK A01 T03070150  RH  039%=      5-min Rain = 0
KHA3 281757Z 27011KT 31/15 A2969 RMK A01 T03080149  RH  038%=      5-min Rain = 0
KHA3 281758Z 26012KT 31/14 A2968 RMK A01 T03070140  RH  036%=      5-min Rain = 0
KHA3 281759Z 27008KT 31/14 A2968 RMK A01 T03070140  RH  036%=      5-min Rain = 0
KHA3 281800Z 28009KT 31/14 A2968 RMK A01 T03070143  RH  037%=      5-min Rain = 0
KHA3 281801Z 29009KT 31/14 A2968 RMK A01 T03070144  RH  037%=      5-min Rain = 0
KHA3 281802Z 28010KT 31/14 A2968 RMK A01 T03070141  RH  036%=      5-min Rain = 0
KHA3 281803Z 29009KT 31/14 A2968 RMK A01 T03070141  RH  036%=      5-min Rain = 0
KHA3 281804Z 28009KT 31/15 A2968 RMK A01 T03060147  RH  038%=      5-min Rain = 0
KHA3 281805Z 26009KT 31/14 A2968 RMK A01 T03070143  RH  037%=      5-min Rain = 0
KHA3 281806Z 28008KT 31/14 A2968 RMK A01 T03070139  RH  036%=      5-min Rain = 0
KHA3 281807Z 29007KT 31/13 A2968 RMK A01 T03060128  RH  034%=      5-min Rain = 0
KHA3 281808Z 28007KT 31/13 A2968 RMK A01 T03060130  RH  034%=      5-min Rain = 0
KHA3 281809Z 29009KT 31/15 A2968 RMK A01 T03060146  RH  038%=      5-min Rain = 0
KHA3 281810Z 30008KT 31/14 A2968 RMK A01 T03080135  RH  035%=      5-min Rain = 0
KHA3 281811Z 28007KT 31/15 A2968 RMK A01 T03080149  RH  038%=      5-min Rain = 0
KHA3 281812Z 28008KT 31/14 A2968 RMK A01 T03090135  RH  035%=      5-min Rain = 0
KHA3 281813Z 30010KT 31/14 A2968 RMK A01 T03080137  RH  035%=      5-min Rain = 0
KHA3 281814Z 29011KT 31/13 A2968 RMK A01 T03080132  RH  034%=      5-min Rain = 0
KHA3 281815Z 29009KT 31/14 A2968 RMK A01 T03080144  RH  037%=      5-min Rain = 0
KHA3 281816Z 29008KT 31/15 A2968 RMK A01 T03080146  RH  037%=      5-min Rain = 0
KHA3 281817Z 28009KT 31/14 A2968 RMK A01 T03090139  RH  035%=      5-min Rain = 0
KHA3 281818Z 29010KT 31/13 A2968 RMK A01 T03080132  RH  034%=      5-min Rain = 0
KHA3 281819Z 29010KT 31/14 A2968 RMK A01 T03080136  RH  035%=      5-min Rain = 0
KHA3 281820Z 29009KT 31/12 A2968 RMK A01 T03090124  RH  032%=      5-min Rain = 0
KHA3 281821Z 30009KT 31/14 A2968 RMK A01 T03100135  RH  034%=      5-min Rain = 0
KHA3 281822Z 31006KT 31/13 A2968 RMK A01 T03100128  RH  033%=      5-min Rain = 0
KHA3 281823Z 28009KT 31/14 A2968 RMK A01 T03090142  RH  036%=      5-min Rain = 0
KHA3 281824Z 27011KT 31/14 A2968 RMK A01 T03100135  RH  034%=      5-min Rain = 0
KHA3 281825Z 27008KT 31/12 A2968 RMK A01 T03110124  RH  032%=      5-min Rain = 0
KHA3 281826Z 28008KT 31/14 A2968 RMK A01 T03100137  RH  035%=      5-min Rain = 0
KHA3 281827Z 29010KT 31/12 A2968 RMK A01 T03100124  RH  032%=      5-min Rain = 0
KHA3 281828Z 29008KT 31/12 A2967 RMK A01 T03090121  RH  032%=      5-min Rain = 0
KHA3 281829Z 29006KT 31/12 A2967 RMK A01 T03080124  RH  032%=      5-min Rain = 0
KHA3 281830Z 28006KT 31/13 A2967 RMK A01 T03080134  RH  035%=      5-min Rain = 0
KHA3 281831Z 26006KT 31/13 A2967 RMK A01 T03090134  RH  034%=      5-min Rain = 0
KHA3 281832Z 28006KT 31/13 A2967 RMK A01 T03090125  RH  032%=      5-min Rain = 0
KHA3 281833Z 29008KT 31/13 A2967 RMK A01 T03090127  RH  033%=      5-min Rain = 0
KHA3 281834Z 28005KT 31/13 A2967 RMK A01 T03090126  RH  033%=      5-min Rain = 0
KHA3 281835Z 29008KT 31/14 A2967 RMK A01 T03080139  RH  036%=      5-min Rain = 0
KHA3 281836Z 29010KT 31/13 A2967 RMK A01 T03090133  RH  034%=      5-min Rain = 0
KHA3 281837Z 30009KT 31/14 A2967 RMK A01 T03100135  RH  034%=      5-min Rain = 0
KHA3 281838Z 30007KT 31/14 A2967 RMK A01 T03100135  RH  035%=      5-min Rain = 0
KHA3 281839Z 29008KT 31/13 A2967 RMK A01 T03100134  RH  034%=      5-min Rain = 0
KHA3 281840Z 29008KT 31/13 A2967 RMK A01 T03100125  RH  032%=      5-min Rain = 0
KHA3 281841Z 29008KT 31/15 A2967 RMK A01 T03100149  RH  038%=      5-min Rain = 0
KHA3 281842Z 26011KT 31/14 A2967 RMK A01 T03140137  RH  034%=      5-min Rain = 0
KHA3 281843Z 25012KT 32/13 A2967 RMK A01 T03150128  RH  032%=      5-min Rain = 0
KHA3 281844Z 25010KT 31/13 A2967 RMK A01 T03130127  RH  032%=      5-min Rain = 0
KHA3 281845Z 28009KT 31/13 A2967 RMK A01 T03120131  RH  033%=      5-min Rain = 0
KHA3 281846Z 27007KT 31/12 A2967 RMK A01 T03120120  RH  031%=      5-min Rain = 0
KHA3 281847Z 29009KT 31/12 A2967 RMK A01 T03110120  RH  031%=      5-min Rain = 0
KHA3 281848Z 27009KT 31/11 A2967 RMK A01 T03100111  RH  029%=      5-min Rain = 0
KHA3 281849Z 27010KT 31/11 A2967 RMK A01 T03090110  RH  029%=      5-min Rain = 0
KHA3 281850Z 27009KT 31/10 A2967 RMK A01 T03090100  RH  027%=      5-min Rain = 0
KHA3 281851Z 28009KT 31/10 A2967 RMK A01 T03090101  RH  028%=      5-min Rain = 0
KHA3 281852Z 28011KT 31/10 A2967 RMK A01 T03100100  RH  027%=      5-min Rain = 0
KHA3 281853Z 29011KT 31/09 A2967 RMK A01 T03100094  RH  026%=      5-min Rain = 0
KHA3 281854Z 30008KT 31/10 A2967 RMK A01 T03100096  RH  026%=      5-min Rain = 0
KHA3 281855Z 27010KT 31/11 A2968 RMK A01 T03110105  RH  028%=      5-min Rain = 0
KHA3 281856Z 26012KT 31/10 A2968 RMK A01 T03120102  RH  027%=      5-min Rain = 0
KHA3 281857Z 27012KT 31/10 A2968 RMK A01 T03120098  RH  027%=      5-min Rain = 0
KHA3 281858Z 27013KT 31/10 A2968 RMK A01 T03110099  RH  027%=      5-min Rain = 0
KHA3 281859Z 26010KT 31/10 A2968 RMK A01 T03110097  RH  027%=      5-min Rain = 0
KHA3 281900Z 27010KT 31/11 A2968 RMK A01 T03110105  RH  028%=      5-min Rain = 0
KHA3 281901Z 26011KT 31/10 A2968 RMK A01 T03120095  RH  026%=      5-min Rain = 0
KHA3 281902Z 27010KT 31/09 A2968 RMK A01 T03110094  RH  026%=      5-min Rain = 0
KHA3 281903Z 26010KT 31/10 A2967 RMK A01 T03110102  RH  027%=      5-min Rain = 0
KHA3 281904Z 27011KT 31/10 A2967 RMK A01 T03120100  RH  027%=      5-min Rain = 0
KHA3 281905Z 26010KT 31/10 A2967 RMK A01 T03120101  RH  027%=      5-min Rain = 0
KHA3 281906Z 28009KT 31/10 A2967 RMK A01 T03130103  RH  027%=      5-min Rain = 0
KHA3 281907Z 28008KT 31/10 A2968 RMK A01 T03140096  RH  026%=      5-min Rain = 0
KHA3 281908Z 28009KT 31/11 A2967 RMK A01 T03120107  RH  028%=      5-min Rain = 0
KHA3 281909Z 28011KT 31/10 A2967 RMK A01 T03120101  RH  027%=      5-min Rain = 0
KHA3 281910Z 27012KT 31/11 A2968 RMK A01 T03130109  RH  029%=      5-min Rain = 0
KHA3 281911Z 26011KT 31/10 A2968 RMK A01 T03130099  RH  027%=      5-min Rain = 0
KHA3 281912Z 25010KT 31/10 A2967 RMK A01 T03120098  RH  027%=      5-min Rain = 0
KHA3 281913Z 26009KT 31/10 A2968 RMK A01 T03120102  RH  027%=      5-min Rain = 0
KHA3 281914Z 28008KT 31/11 A2968 RMK A01 T03120106  RH  028%=      5-min Rain = 0
KHA3 281915Z 29009KT 31/11 A2968 RMK A01 T03120106  RH  028%=      5-min Rain = 0
KHA3 281916Z 28011KT 31/10 A2968 RMK A01 T03130098  RH  027%=      5-min Rain = 0
KHA3 281917Z 27011KT 31/11 A2967 RMK A01 T03130109  RH  028%=      5-min Rain = 0
KHA3 281918Z 27011KT 31/09 A2967 RMK A01 T03140094  RH  026%=      5-min Rain = 0
KHA3 281919Z 27010KT 31/11 A2968 RMK A01 T03140105  RH  028%=      5-min Rain = 0
KHA3 281920Z 30009KT 32/12 A2968 RMK A01 T03150118  RH  030%=      5-min Rain = 0
KHA3 281921Z 30009KT 32/10 A2968 RMK A01 T03160101  RH  027%=      5-min Rain = 0
KHA3 281922Z 31007KT 32/10 A2968 RMK A01 T03150098  RH  026%=      5-min Rain = 0
KHA3 281923Z 29010G16KT 32/10 A2967 RMK A01 T03150104  RH  027%=      5-min Rain = 0
KHA3 281924Z 29014KT 32/10 A2967 RMK A01 T03150098  RH  026%=      5-min Rain = 0
KHA3 281925Z 28013KT 32/10 A2968 RMK A01 T03150097  RH  026%=      5-min Rain = 0
KHA3 281926Z 28010KT 32/10 A2968 RMK A01 T03150096  RH  026%=      5-min Rain = 0
KHA3 281927Z 28010KT 32/10 A2968 RMK A01 T03150104  RH  027%=      5-min Rain = 0
KHA3 281928Z 28009KT 32/10 A2967 RMK A01 T03150095  RH  026%=      5-min Rain = 0
KHA3 281929Z 27010KT 32/10 A2967 RMK A01 T03150102  RH  027%=      5-min Rain = 0
KHA3 281930Z 27008KT 32/08 A2968 RMK A01 T03160083  RH  024%=      5-min Rain = 0
KHA3 281931Z 27011KT 31/09 A2967 RMK A01 T03140090  RH  025%=      5-min Rain = 0
KHA3 281932Z 26013KT 31/10 A2967 RMK A01 T03140095  RH  026%=      5-min Rain = 0
KHA3 281933Z 28011KT 32/10 A2967 RMK A01 T03150095  RH  026%=      5-min Rain = 0
KHA3 281934Z 28011KT 32/11 A2968 RMK A01 T03160114  RH  029%=      5-min Rain = 0
KHA3 281935Z 27013KT 32/10 A2968 RMK A01 T03180098  RH  026%=      5-min Rain = 0
KHA3 281936Z 27012KT 32/09 A2968 RMK A01 T03180087  RH  024%=      5-min Rain = 0
KHA3 281937Z 27011KT 32/08 A2968 RMK A01 T03160083  RH  024%=      5-min Rain = 0
KHA3 281938Z 28013KT 32/10 A2968 RMK A01 T03150098  RH  026%=      5-min Rain = 0
KHA3 281939Z 28014KT 32/09 A2968 RMK A01 T03160093  RH  025%=      5-min Rain = 0
KHA3 281940Z 28012KT 32/08 A2968 RMK A01 T03150080  RH  023%=      5-min Rain = 0
KHA3 281941Z 29010KT 31/08 A2968 RMK A01 T03140077  RH  023%=      5-min Rain = 0
KHA3 281942Z 28011KT 31/09 A2967 RMK A01 T03130089  RH  025%=      5-min Rain = 0
KHA3 281943Z 29011KT 31/09 A2967 RMK A01 T03130091  RH  025%=      5-min Rain = 0
KHA3 281944Z 29010KT 32/09 A2967 RMK A01 T03150093  RH  025%=      5-min Rain = 0
KHA3 281945Z 30014KT 32/09 A2967 RMK A01 T03150094  RH  025%=      5-min Rain = 0
KHA3 281946Z 31014KT 32/10 A2967 RMK A01 T03160095  RH  026%=      5-min Rain = 0
KHA3 281947Z 30009KT 32/10 A2967 RMK A01 T03160096  RH  026%=      5-min Rain = 0
KHA3 281948Z 29008KT 32/10 A2967 RMK A01 T03160095  RH  026%=      5-min Rain = 0
KHA3 281949Z 28009G14KT 32/10 A2967 RMK A01 T03160097  RH  026%=      5-min Rain = 0
KHA3 281950Z 28015KT 32/08 A2967 RMK A01 T03160084  RH  024%=      5-min Rain = 0
KHA3 281951Z 27012KT 32/09 A2967 RMK A01 T03160093  RH  025%=      5-min Rain = 0
KHA3 281952Z 27013KT 32/07 A2967 RMK A01 T03160073  RH  022%=      5-min Rain = 0
KHA3 281953Z 27010KT 32/08 A2967 RMK A01 T03160081  RH  023%=      5-min Rain = 0
KHA3 281954Z 27010G15KT 32/09 A2967 RMK A01 T03150094  RH  025%=      5-min Rain = 0
KHA3 281955Z 28015KT 32/09 A2967 RMK A01 T03160087  RH  024%=      5-min Rain = 0
KHA3 281956Z 27011KT 32/09 A2967 RMK A01 T03170087  RH  024%=      5-min Rain = 0
KHA3 281957Z 27013KT 32/09 A2967 RMK A01 T03170094  RH  025%=      5-min Rain = 0
KHA3 281958Z 27015KT 32/08 A2967 RMK A01 T03170080  RH  023%=      5-min Rain = 0
KHA3 281959Z 27012KT 32/08 A2967 RMK A01 T03160076  RH  022%=      5-min Rain = 0
KHA3 282000Z 26011KT 32/09 A2967 RMK A01 T03150089  RH  025%=      5-min Rain = 0
KHA3 282001Z 26011KT 32/08 A2967 RMK A01 T03160080  RH  023%=      5-min Rain = 0
KHA3 282002Z 26011KT 32/07 A2967 RMK A01 T03160073  RH  022%=      5-min Rain = 0
KHA3 282003Z 27009KT 32/08 A2967 RMK A01 T03150082  RH  023%=      5-min Rain = 0
KHA3 282004Z 28014KT 32/09 A2967 RMK A01 T03150085  RH  024%=      5-min Rain = 0
KHA3 282005Z 28015KT 32/08 A2967 RMK A01 T03150078  RH  023%=      5-min Rain = 0
KHA3 282006Z 29011KT 31/08 A2967 RMK A01 T03140079  RH  023%=      5-min Rain = 0
KHA3 282007Z 29010KT 31/09 A2967 RMK A01 T03140086  RH  024%=      5-min Rain = 0
KHA3 282008Z 28011KT 31/10 A2967 RMK A01 T03140102  RH  027%=      5-min Rain = 0
KHA3 282009Z 27012KT 32/09 A2968 RMK A01 T03160085  RH  024%=      5-min Rain = 0
KHA3 282010Z 27011KT 32/09 A2968 RMK A01 T03160090  RH  025%=      5-min Rain = 0
KHA3 282011Z 27014KT 32/09 A2968 RMK A01 T03160094  RH  025%=      5-min Rain = 0
KHA3 282012Z 28014KT 32/08 A2968 RMK A01 T03160079  RH  023%=      5-min Rain = 0
KHA3 282013Z 29010KT 31/09 A2968 RMK A01 T03140086  RH  024%=      5-min Rain = 0
KHA3 282014Z 29012KT 31/09 A2968 RMK A01 T03140088  RH  025%=      5-min Rain = 0
KHA3 282015Z 27013KT 31/09 A2968 RMK A01 T03140093  RH  025%=      5-min Rain = 0
KHA3 282016Z 26015KT 32/08 A2968 RMK A01 T03160080  RH  023%=      5-min Rain = 0
KHA3 282017Z 26012KT 32/08 A2968 RMK A01 T03160078  RH  023%=      5-min Rain = 0
KHA3 282018Z 25010KT 32/09 A2968 RMK A01 T03150090  RH  025%=      5-min Rain = 0
KHA3 282019Z 25011KT 32/08 A2968 RMK A01 T03150075  RH  022%=      5-min Rain = 0
KHA3 282020Z 27010KT 32/09 A2968 RMK A01 T03150089  RH  025%=      5-min Rain = 0
KHA3 282021Z 27013KT 32/08 A2968 RMK A01 T03170080  RH  023%=      5-min Rain = 0
KHA3 282022Z 27009KT 32/08 A2968 RMK A01 T03160081  RH  023%=      5-min Rain = 0
KHA3 282023Z 25010KT 32/10 A2968 RMK A01 T03150100  RH  027%=      5-min Rain = 0
KHA3 282024Z 26011KT 32/08 A2968 RMK A01 T03160082  RH  024%=      5-min Rain = 0
KHA3 282025Z 27012KT 32/09 A2968 RMK A01 T03160085  RH  024%=      5-min Rain = 0
KHA3 282026Z 28012KT 32/08 A2968 RMK A01 T03150077  RH  023%=      5-min Rain = 0
KHA3 282027Z 26014KT 31/09 A2968 RMK A01 T03140087  RH  024%=      5-min Rain = 0
KHA3 282028Z 25013KT 32/08 A2968 RMK A01 T03150082  RH  024%=      5-min Rain = 0
KHA3 282029Z 25012KT 32/09 A2968 RMK A01 T03160086  RH  024%=      5-min Rain = 0
KHA3 282030Z 26010KT 32/08 A2968 RMK A01 T03160078  RH  023%=      5-min Rain = 0
KHA3 282031Z 25010KT 32/08 A2968 RMK A01 T03150077  RH  023%=      5-min Rain = 0
KHA3 282032Z 26011KT 31/08 A2968 RMK A01 T03140083  RH  024%=      5-min Rain = 0
KHA3 282033Z 26014KT 32/08 A2968 RMK A01 T03150080  RH  023%=      5-min Rain = 0
KHA3 282034Z 27012KT 32/08 A2968 RMK A01 T03150080  RH  023%=      5-min Rain = 0
KHA3 282035Z 27012KT 32/08 A2968 RMK A01 T03150079  RH  023%=      5-min Rain = 0
KHA3 282036Z 27013KT 32/08 A2968 RMK A01 T03150075  RH  022%=      5-min Rain = 0
KHA3 282037Z 27013KT 31/08 A2968 RMK A01 T03140081  RH  023%=      5-min Rain = 0
KHA3 282038Z 27014KT 31/08 A2968 RMK A01 T03140075  RH  023%=      5-min Rain = 0
KHA3 282039Z 26012KT 31/08 A2968 RMK A01 T03140079  RH  023%=      5-min Rain = 0
KHA3 282040Z 27012KT 31/08 A2968 RMK A01 T03140079  RH  023%=      5-min Rain = 0
KHA3 282041Z 28011KT 32/07 A2968 RMK A01 T03150071  RH  022%=      5-min Rain = 0
KHA3 282042Z 28012KT 31/08 A2968 RMK A01 T03140076  RH  023%=      5-min Rain = 0
KHA3 282043Z 28012KT 31/08 A2968 RMK A01 T03140082  RH  024%=      5-min Rain = 0
KHA3 282044Z 28015KT 31/07 A2968 RMK A01 T03140072  RH  022%=      5-min Rain = 0
KHA3 282045Z 29015KT 31/07 A2968 RMK A01 T03140072  RH  022%=      5-min Rain = 0
KHA3 282046Z 28014KT 31/08 A2968 RMK A01 T03130075  RH  023%=      5-min Rain = 0
KHA3 282047Z 28013KT 31/09 A2968 RMK A01 T03130086  RH  024%=      5-min Rain = 0
KHA3 282048Z 29015KT 32/08 A2968 RMK A01 T03150081  RH  023%=      5-min Rain = 0
KHA3 282049Z 28014KT 32/08 A2968 RMK A01 T03150077  RH  023%=      5-min Rain = 0
KHA3 282050Z 27017KT 32/07 A2968 RMK A01 T03150068  RH  021%=      5-min Rain = 0
KHA3 282051Z 27015G20KT 32/07 A2968 RMK A01 T03150069  RH  022%=      5-min Rain = 0
KHA3 282052Z 27014KT 31/07 A2968 RMK A01 T03140070  RH  022%=      5-min Rain = 0
KHA3 282053Z 26013KT 32/08 A2968 RMK A01 T03150081  RH  023%=      5-min Rain = 0
KHA3 282054Z 25014KT 32/08 A2968 RMK A01 T03170078  RH  023%=      5-min Rain = 0
KHA3 282055Z 24014KT 32/07 A2968 RMK A01 T03180070  RH  021%=      5-min Rain = 0
KHA3 282056Z 25015KT 32/07 A2968 RMK A01 T03170069  RH  021%=      5-min Rain = 0
KHA3 282057Z 25014KT 32/08 A2968 RMK A01 T03180075  RH  022%=      5-min Rain = 0
KHA3 282058Z 27015KT 32/08 A2968 RMK A01 T03180075  RH  022%=      5-min Rain = 0
KHA3 282059Z 27016G21KT 32/07 A2968 RMK A01 T03180069  RH  021%=      5-min Rain = 0
KHA3 282100Z 26014G20KT 32/07 A2968 RMK A01 T03170067  RH  021%=      5-min Rain = 0
KHA3 282101Z 27018KT 32/07 A2968 RMK A01 T03150068  RH  021%=      5-min Rain = 0
KHA3 282102Z 27019KT 32/06 A2968 RMK A01 T03150060  RH  020%=      5-min Rain = 0
KHA3 282103Z 27015KT 32/06 A2968 RMK A01 T03150057  RH  020%=      5-min Rain = 0
KHA3 282104Z 27015KT 31/07 A2968 RMK A01 T03140065  RH  021%=      5-min Rain = 0
KHA3 282105Z 27015KT 31/06 A2967 RMK A01 T03130062  RH  021%=      5-min Rain = 0
KHA3 282106Z 26016KT 31/07 A2967 RMK A01 T03140067  RH  021%=      5-min Rain = 0
KHA3 282107Z 26015KT 32/06 A2967 RMK A01 T03150062  RH  021%=      5-min Rain = 0
KHA3 282108Z 26015KT 31/06 A2968 RMK A01 T03140061  RH  020%=      5-min Rain = 0
KHA3 282109Z 25013KT 32/07 A2968 RMK A01 T03150071  RH  022%=      5-min Rain = 0
KHA3 282110Z 24013KT 32/07 A2968 RMK A01 T03160067  RH  021%=      5-min Rain = 0
KHA3 282111Z 24011KT 32/06 A2967 RMK A01 T03160059  RH  020%=      5-min Rain = 0
KHA3 282112Z 25011KT 32/07 A2967 RMK A01 T03160066  RH  021%=      5-min Rain = 0
KHA3 282113Z 27012KT 32/09 A2968 RMK A01 T03170085  RH  024%=      5-min Rain = 0
KHA3 282114Z 27013KT 32/08 A2968 RMK A01 T03180078  RH  023%=      5-min Rain = 0
KHA3 282115Z 27014G22KT 32/09 A2967 RMK A01 T03170090  RH  024%=      5-min Rain = 0
KHA3 282116Z 26014G19KT 32/07 A2967 RMK A01 T03170072  RH  022%=      5-min Rain = 0
KHA3 282117Z 26014KT 32/07 A2968 RMK A01 T03170069  RH  021%=      5-min Rain = 0
KHA3 282118Z 25012KT 32/08 A2967 RMK A01 T03160082  RH  023%=      5-min Rain = 0
KHA3 282119Z 26015KT 32/08 A2967 RMK A01 T03160078  RH  023%=      5-min Rain = 0
KHA3 282120Z 26013KT 32/06 A2967 RMK A01 T03160060  RH  020%=      5-min Rain = 0
KHA3 282121Z 27011KT 32/07 A2967 RMK A01 T03150070  RH  022%=      5-min Rain = 0
KHA3 282122Z 27015KT 31/08 A2967 RMK A01 T03140078  RH  023%=      5-min Rain = 0
KHA3 282123Z 27010KT 32/08 A2967 RMK A01 T03150081  RH  023%=      5-min Rain = 0
KHA3 282124Z 28012KT 32/08 A2967 RMK A01 T03160084  RH  024%=      5-min Rain = 0
KHA3 282125Z 27013KT 32/08 A2967 RMK A01 T03160079  RH  023%=      5-min Rain = 0
KHA3 282126Z 27014KT 32/08 A2967 RMK A01 T03150077  RH  023%=      5-min Rain = 0
KHA3 282127Z 27011KT 32/08 A2967 RMK A01 T03150078  RH  023%=      5-min Rain = 0
KHA3 282128Z 27013KT 31/08 A2967 RMK A01 T03140081  RH  023%=      5-min Rain = 0
KHA3 282129Z 27013KT 32/08 A2967 RMK A01 T03150083  RH  024%=      5-min Rain = 0
KHA3 282130Z 27016KT 32/07 A2967 RMK A01 T03160073  RH  022%=      5-min Rain = 0
KHA3 282131Z 26016KT 32/07 A2967 RMK A01 T03150071  RH  022%=      5-min Rain = 0
KHA3 282132Z 26014KT 32/07 A2967 RMK A01 T03150065  RH  021%=      5-min Rain = 0
KHA3 282133Z 27011KT 31/07 A2967 RMK A01 T03140071  RH  022%=      5-min Rain = 0
KHA3 282134Z 26007KT 31/07 A2967 RMK A01 T03130066  RH  021%=      5-min Rain = 0
KHA3 282135Z 26009G15KT 31/07 A2967 RMK A01 T03130069  RH  022%=      5-min Rain = 0
KHA3 282136Z 26014KT 31/08 A2967 RMK A01 T03140078  RH  023%=      5-min Rain = 0
KHA3 282137Z 27013KT 31/08 A2967 RMK A01 T03140078  RH  023%=      5-min Rain = 0
KHA3 282138Z 27011KT 32/07 A2967 RMK A01 T03150073  RH  022%=      5-min Rain = 0
KHA3 282139Z 27010KT 31/07 A2967 RMK A01 T03130069  RH  022%=      5-min Rain = 0
KHA3 282140Z 27008KT 31/08 A2967 RMK A01 T03120078  RH  023%=      5-min Rain = 0
KHA3 282141Z 28007KT 31/08 A2967 RMK A01 T03120079  RH  023%=      5-min Rain = 0
KHA3 282142Z 28008KT 31/08 A2967 RMK A01 T03120080  RH  024%=      5-min Rain = 0
KHA3 282143Z 28008KT 31/09 A2967 RMK A01 T03130093  RH  026%=      5-min Rain = 0
KHA3 282144Z 28008KT 32/08 A2967 RMK A01 T03150081  RH  023%=      5-min Rain = 0
KHA3 282145Z 27011G16KT 32/09 A2967 RMK A01 T03150089  RH  025%=      5-min Rain = 0
KHA3 282146Z 27013KT 32/08 A2966 RMK A01 T03150081  RH  023%=      5-min Rain = 0
KHA3 282147Z 27012KT 32/08 A2966 RMK A01 T03150077  RH  023%=      5-min Rain = 0
KHA3 282148Z 28013KT 32/08 A2966 RMK A01 T03150076  RH  023%=      5-min Rain = 0
KHA3 282149Z 28014KT 32/08 A2966 RMK A01 T03150077  RH  023%=      5-min Rain = 0
KHA3 282150Z 27012KT 31/08 A2966 RMK A01 T03140078  RH  023%=      5-min Rain = 0
KHA3 282151Z 26010KT 31/08 A2966 RMK A01 T03140080  RH  023%=      5-min Rain = 0
KHA3 282152Z 26009KT 31/07 A2966 RMK A01 T03140067  RH  021%=      5-min Rain = 0
KHA3 282153Z 27009KT 31/08 A2966 RMK A01 T03140076  RH  023%=      5-min Rain = 0
KHA3 282154Z 29010KT 31/08 A2966 RMK A01 T03140081  RH  023%=      5-min Rain = 0
KHA3 282155Z 28008KT 31/09 A2966 RMK A01 T03140086  RH  024%=      5-min Rain = 0
KHA3 282156Z 28011KT 32/09 A2966 RMK A01 T03150092  RH  025%=      5-min Rain = 0
KHA3 282157Z 26013KT 32/08 A2966 RMK A01 T03150083  RH  024%=      5-min Rain = 0
KHA3 282158Z 26011KT 32/08 A2966 RMK A01 T03150080  RH  023%=      5-min Rain = 0
KHA3 282159Z 28012KT 32/09 A2966 RMK A01 T03150086  RH  024%=      5-min Rain = 0
KHA3 282200Z 29012KT 32/08 A2966 RMK A01 T03150079  RH  023%=      5-min Rain = 0
KHA3 282201Z 28012KT 32/09 A2966 RMK A01 T03150086  RH  024%=      5-min Rain = 0
KHA3 282202Z 28009KT 31/08 A2966 RMK A01 T03140080  RH  023%=      5-min Rain = 0
KHA3 282203Z 27011KT 31/09 A2966 RMK A01 T03130085  RH  024%=      5-min Rain = 0
KHA3 282204Z 27012KT 31/08 A2966 RMK A01 T03140078  RH  023%=      5-min Rain = 0
KHA3 282205Z 28012KT 31/08 A2966 RMK A01 T03140083  RH  024%=      5-min Rain = 0
KHA3 282206Z 28011KT 31/08 A2965 RMK A01 T03140079  RH  023%=      5-min Rain = 0
KHA3 282207Z 27012KT 31/08 A2965 RMK A01 T03130083  RH  024%=      5-min Rain = 0
KHA3 282208Z 27011KT 31/08 A2965 RMK A01 T03140083  RH  024%=      5-min Rain = 0
KHA3 282209Z 28012KT 31/08 A2965 RMK A01 T03140082  RH  024%=      5-min Rain = 0
KHA3 282210Z 27013KT 31/08 A2965 RMK A01 T03140079  RH  023%=      5-min Rain = 0
KHA3 282211Z 27011G16KT 31/09 A2965 RMK A01 T03140085  RH  024%=      5-min Rain = 0
KHA3 282212Z 26015KT 31/08 A2965 RMK A01 T03140082  RH  024%=      5-min Rain = 0
KHA3 282213Z 27013KT 31/08 A2965 RMK A01 T03140078  RH  023%=      5-min Rain = 0
KHA3 282214Z 26010KT 31/07 A2965 RMK A01 T03140074  RH  022%=      5-min Rain = 0
KHA3 282215Z 26009KT 31/08 A2965 RMK A01 T03140076  RH  023%=      5-min Rain = 0
KHA3 282216Z 27009KT 31/08 A2965 RMK A01 T03140077  RH  023%=      5-min Rain = 0
KHA3 282217Z 26007KT 31/08 A2965 RMK A01 T03140083  RH  024%=      5-min Rain = 0
KHA3 282218Z 26008KT 32/09 A2965 RMK A01 T03150085  RH  024%=      5-min Rain = 0
KHA3 282219Z 27009KT 32/08 A2965 RMK A01 T03150082  RH  024%=      5-min Rain = 0
KHA3 282220Z 26008KT 32/09 A2965 RMK A01 T03150090  RH  025%=      5-min Rain = 0
KHA3 282221Z 26009KT 32/09 A2965 RMK A01 T03150087  RH  024%=      5-min Rain = 0
KHA3 282222Z 27007KT 32/09 A2965 RMK A01 T03150091  RH  025%=      5-min Rain = 0
KHA3 282223Z 27009KT 32/10 A2965 RMK A01 T03160097  RH  026%=      5-min Rain = 0
KHA3 282224Z 27013KT 32/08 A2965 RMK A01 T03160082  RH  023%=      5-min Rain = 0
KHA3 282225Z 27011KT 32/08 A2965 RMK A01 T03160080  RH  023%=      5-min Rain = 0
KHA3 282226Z 27011KT 32/08 A2965 RMK A01 T03150078  RH  023%=      5-min Rain = 0
KHA3 282227Z 26008KT 31/07 A2965 RMK A01 T03140072  RH  022%=      5-min Rain = 0
KHA3 282228Z 26009KT 31/09 A2965 RMK A01 T03140085  RH  024%=      5-min Rain = 0
KHA3 282229Z 26008KT 31/08 A2965 RMK A01 T03140082  RH  024%=      5-min Rain = 0
KHA3 282230Z 27009KT 32/09 A2965 RMK A01 T03150093  RH  025%=      5-min Rain = 0
KHA3 282231Z 28009KT 32/09 A2965 RMK A01 T03160086  RH  024%=      5-min Rain = 0
KHA3 282232Z 28010KT 32/09 A2965 RMK A01 T03150086  RH  024%=      5-min Rain = 0
KHA3 282233Z 28010KT 31/09 A2965 RMK A01 T03140091  RH  025%=      5-min Rain = 0
KHA3 282234Z 28009KT 32/09 A2965 RMK A01 T03150093  RH  025%=      5-min Rain = 0
KHA3 282235Z 29010KT 32/09 A2965 RMK A01 T03150090  RH  025%=      5-min Rain = 0
KHA3 282236Z 28009KT 32/09 A2965 RMK A01 T03150085  RH  024%=      5-min Rain = 0
KHA3 282237Z 28008KT 31/10 A2965 RMK A01 T03140096  RH  026%=      5-min Rain = 0
KHA3 282238Z 29010KT 31/09 A2965 RMK A01 T03140087  RH  025%=      5-min Rain = 0
KHA3 282239Z 29010KT 31/08 A2965 RMK A01 T03140083  RH  024%=      5-min Rain = 0
KHA3 282240Z 29009KT 31/08 A2965 RMK A01 T03140077  RH  023%=      5-min Rain = 0
KHA3 282241Z 29007KT 31/08 A2965 RMK A01 T03130076  RH  023%=      5-min Rain = 0
KHA3 282242Z 29008KT 31/08 A2965 RMK A01 T03130075  RH  023%=      5-min Rain = 0
KHA3 282243Z 30009KT 31/08 A2965 RMK A01 T03130081  RH  024%=      5-min Rain = 0
KHA3 282244Z 29008KT 31/08 A2965 RMK A01 T03130081  RH  024%=      5-min Rain = 0
KHA3 282245Z 29005KT 31/08 A2965 RMK A01 T03130084  RH  024%=      5-min Rain = 0
KHA3 282246Z 28006KT 31/08 A2965 RMK A01 T03130082  RH  024%=      5-min Rain = 0
KHA3 282247Z 28007KT 31/08 A2965 RMK A01 T03130076  RH  023%=      5-min Rain = 0
KHA3 282248Z 28005KT 31/07 A2965 RMK A01 T03130070  RH  022%=      5-min Rain = 0
KHA3 282249Z 27003KT 31/08 A2965 RMK A01 T03130077  RH  023%=      5-min Rain = 0
KHA3 282250Z 27003KT 31/09 A2965 RMK A01 T03130090  RH  025%=      5-min Rain = 0
KHA3 282251Z 29002KT 32/10 A2965 RMK A01 T03150095  RH  026%=      5-min Rain = 0
KHA3 282252Z 28003KT 32/10 A2965 RMK A01 T03160098  RH  026%=      5-min Rain = 0
KHA3 282253Z 27005KT 32/10 A2965 RMK A01 T03180099  RH  026%=      5-min Rain = 0
KHA3 282254Z 27006KT 32/08 A2965 RMK A01 T03170079  RH  023%=      5-min Rain = 0
KHA3 282255Z 27007KT 32/09 A2965 RMK A01 T03170090  RH  025%=      5-min Rain = 0
KHA3 282256Z 24006KT 32/09 A2965 RMK A01 T03160093  RH  025%=      5-min Rain = 0
KHA3 282257Z 24008KT 32/08 A2965 RMK A01 T03160082  RH  023%=      5-min Rain = 0
KHA3 282258Z 23006KT 32/07 A2965 RMK A01 T03160074  RH  022%=      5-min Rain = 0
KHA3 282259Z 22006KT 32/08 A2965 RMK A01 T03160082  RH  023%=      5-min Rain = 0
KHA3 282300Z 24006KT 32/10 A2965 RMK A01 T03150095  RH  026%=      5-min Rain = 0
KHA3 282301Z 26007KT 32/08 A2965 RMK A01 T03150080  RH  023%=      5-min Rain = 0
KHA3 282302Z 26007KT 32/09 A2965 RMK A01 T03150087  RH  024%=      5-min Rain = 0
KHA3 282303Z 26008KT 32/09 A2965 RMK A01 T03150085  RH  024%=      5-min Rain = 0
KHA3 282304Z 25006KT 32/09 A2965 RMK A01 T03150089  RH  025%=      5-min Rain = 0
KHA3 282305Z 26006KT 31/09 A2965 RMK A01 T03140086  RH  024%=      5-min Rain = 0
KHA3 282306Z 26008KT 32/09 A2965 RMK A01 T03150085  RH  024%=      5-min Rain = 0
KHA3 282307Z 25006KT 31/08 A2965 RMK A01 T03140082  RH  024%=      5-min Rain = 0
KHA3 282308Z 26006KT 31/09 A2965 RMK A01 T03140090  RH  025%=      5-min Rain = 0
KHA3 282309Z 25006KT 31/09 A2965 RMK A01 T03140089  RH  025%=      5-min Rain = 0
KHA3 282310Z 26006KT 31/07 A2965 RMK A01 T03140065  RH  021%=      5-min Rain = 0
KHA3 282311Z 27005KT 32/06 A2965 RMK A01 T03150058  RH  020%=      5-min Rain = 0
KHA3 282312Z 25003KT 32/07 A2965 RMK A01 T03150067  RH  021%=      5-min Rain = 0
KHA3 282313Z 25003KT 32/09 A2965 RMK A01 T03150088  RH  025%=      5-min Rain = 0
KHA3 282314Z 25004KT 32/08 A2965 RMK A01 T03150080  RH  023%=      5-min Rain = 0
KHA3 282315Z 24004KT 32/07 A2965 RMK A01 T03160074  RH  022%=      5-min Rain = 0
KHA3 282316Z 20003KT 32/08 A2965 RMK A01 T03160084  RH  024%=      5-min Rain = 0
KHA3 282317Z 21005KT 32/10 A2964 RMK A01 T03170100  RH  026%=      5-min Rain = 0
KHA3 282318Z 23004KT 32/10 A2964 RMK A01 T03170100  RH  026%=      5-min Rain = 0
KHA3 282319Z 26005KT 32/09 A2964 RMK A01 T03170092  RH  025%=      5-min Rain = 0
KHA3 282320Z 25004KT 32/09 A2964 RMK A01 T03170088  RH  024%=      5-min Rain = 0
KHA3 282321Z 26006KT 32/10 A2964 RMK A01 T03170096  RH  026%=      5-min Rain = 0
KHA3 282322Z 28006KT 32/11 A2964 RMK A01 T03170109  RH  028%=      5-min Rain = 0
KHA3 282323Z 26003KT 32/09 A2964 RMK A01 T03170090  RH  025%=      5-min Rain = 0
KHA3 282324Z 25006KT 32/09 A2964 RMK A01 T03160093  RH  025%=      5-min Rain = 0
KHA3 282325Z 25006KT 32/08 A2964 RMK A01 T03160084  RH  024%=      5-min Rain = 0
KHA3 282326Z 25007KT 32/09 A2964 RMK A01 T03160090  RH  025%=      5-min Rain = 0
KHA3 282327Z 25005KT 32/07 A2964 RMK A01 T03160072  RH  022%=      5-min Rain = 0
KHA3 282328Z 23004KT 32/08 A2964 RMK A01 T03150080  RH  023%=      5-min Rain = 0
KHA3 282329Z 21004KT 32/07 A2964 RMK A01 T03150067  RH  021%=      5-min Rain = 0
KHA3 282330Z 19003KT 32/07 A2964 RMK A01 T03150069  RH  022%=      5-min Rain = 0
KHA3 282331Z 16003KT 32/07 A2964 RMK A01 T03150065  RH  021%=      5-min Rain = 0
KHA3 282332Z 16002KT 31/05 A2964 RMK A01 T03140054  RH  020%=      5-min Rain = 0
KHA3 282333Z 22002KT 31/07 A2964 RMK A01 T03140074  RH  022%=      5-min Rain = 0
KHA3 282334Z 26004KT 31/08 A2964 RMK A01 T03140081  RH  023%=      5-min Rain = 0
KHA3 282335Z 25004KT 32/08 A2964 RMK A01 T03150077  RH  023%=      5-min Rain = 0
KHA3 282336Z 27004KT 32/07 A2964 RMK A01 T03150072  RH  022%=      5-min Rain = 0
KHA3 282337Z 26004KT 32/07 A2964 RMK A01 T03150074  RH  022%=      5-min Rain = 0
KHA3 282338Z 24006KT 32/08 A2964 RMK A01 T03150078  RH  023%=      5-min Rain = 0
KHA3 282339Z 25006KT 32/08 A2964 RMK A01 T03150078  RH  023%=      5-min Rain = 0
KHA3 282340Z 24006KT 31/08 A2964 RMK A01 T03140081  RH  023%=      5-min Rain = 0
KHA3 282341Z 24006KT 31/07 A2964 RMK A01 T03140074  RH  022%=      5-min Rain = 0
KHA3 282342Z 23007KT 31/07 A2964 RMK A01 T03140070  RH  022%=      5-min Rain = 0
KHA3 282343Z 23006KT 31/08 A2964 RMK A01 T03130077  RH  023%=      5-min Rain = 0
KHA3 282344Z 23005KT 31/08 A2964 RMK A01 T03130084  RH  024%=      5-min Rain = 0
KHA3 282345Z 23005KT 31/08 A2964 RMK A01 T03130082  RH  024%=      5-min Rain = 0
KHA3 282346Z 25005KT 31/09 A2964 RMK A01 T03130085  RH  024%=      5-min Rain = 0
KHA3 282347Z 23005KT 31/08 A2964 RMK A01 T03130082  RH  024%=      5-min Rain = 0
KHA3 282348Z 24004KT 31/09 A2964 RMK A01 T03130093  RH  026%=      5-min Rain = 0
KHA3 282349Z 24004KT 31/09 A2964 RMK A01 T03130090  RH  025%=      5-min Rain = 0
KHA3 282350Z 26003KT 31/10 A2964 RMK A01 T03130101  RH  027%=      5-min Rain = 0
KHA3 282351Z 26005KT 31/10 A2964 RMK A01 T03130096  RH  026%=      5-min Rain = 0
KHA3 282352Z 25005KT 31/10 A2964 RMK A01 T03130096  RH  026%=      5-min Rain = 0
KHA3 282353Z 24005KT 31/08 A2964 RMK A01 T03130078  RH  023%=      5-min Rain = 0
KHA3 282354Z 26003KT 31/08 A2964 RMK A01 T03130078  RH  023%=      5-min Rain = 0
KHA3 282355Z 27004KT 31/09 A2964 RMK A01 T03130094  RH  026%=      5-min Rain = 0
KHA3 282356Z 26004KT 31/08 A2964 RMK A01 T03130079  RH  023%=      5-min Rain = 0
KHA3 282357Z 27003KT 31/08 A2963 RMK A01 T03130075  RH  023%=      5-min Rain = 0
KHA3 282358Z 28002KT 31/08 A2963 RMK A01 T03120080  RH  023%=      5-min Rain = 0
KHA3 282359Z 28003KT 31/10 A2963 RMK A01 T03130099  RH  027%=      5-min Rain = 0
KHA3 290000Z 28003KT 31/09 A2963 RMK A01 T03130086  RH  024%=      5-min Rain = 0
KHA3 290001Z 29003KT 31/10 A2963 RMK A01 T03130098  RH  026%=      5-min Rain = 0
KHA3 290002Z 29003KT 31/09 A2963 RMK A01 T03130085  RH  024%=      5-min Rain = 0
KHA3 290003Z 29004KT 31/08 A2963 RMK A01 T03120080  RH  024%=      5-min Rain = 0
KHA3 290004Z 31004KT 31/09 A2964 RMK A01 T03120094  RH  026%=      5-min Rain = 0
KHA3 290005Z 31005KT 31/11 A2964 RMK A01 T03110109  RH  029%=      5-min Rain = 0
KHA3 290006Z 31005KT 31/11 A2964 RMK A01 T03090109  RH  029%=      5-min Rain = 0
KHA3 290007Z 30005KT 31/11 A2963 RMK A01 T03070105  RH  029%=      5-min Rain = 0
KHA3 290008Z 30005KT 31/09 A2963 RMK A01 T03060094  RH  027%=      5-min Rain = 0
KHA3 290009Z 30005KT 31/10 A2963 RMK A01 T03060100  RH  028%=      5-min Rain = 0
KHA3 290010Z 30004KT 31/11 A2963 RMK A01 T03060107  RH  029%=      5-min Rain = 0
KHA3 290011Z 30004KT 31/11 A2963 RMK A01 T03060112  RH  030%=      5-min Rain = 0
KHA3 290012Z 31004KT 31/12 A2963 RMK A01 T03060115  RH  031%=      5-min Rain = 0
KHA3 290013Z 30004KT 31/12 A2963 RMK A01 T03050117  RH  031%=      5-min Rain = 0
KHA3 290014Z 30004KT 31/12 A2963 RMK A01 T03050120  RH  032%=      5-min Rain = 0
KHA3 290015Z 30005KT 30/12 A2963 RMK A01 T03040118  RH  032%=      5-min Rain = 0
KHA3 290016Z 31004KT 30/12 A2963 RMK A01 T03040117  RH  032%=      5-min Rain = 0
KHA3 290017Z 32005KT 30/12 A2963 RMK A01 T03030117  RH  032%=      5-min Rain = 0
KHA3 290018Z 32005KT 30/11 A2964 RMK A01 T03010114  RH  032%=      5-min Rain = 0
KHA3 290019Z 32005KT 30/12 A2963 RMK A01 T03000116  RH  032%=      5-min Rain = 0
KHA3 290020Z 32005KT 30/12 A2963 RMK A01 T02990117  RH  033%=      5-min Rain = 0
KHA3 290021Z 32005KT 30/13 A2963 RMK A01 T02970125  RH  035%=      5-min Rain = 0
KHA3 290022Z 32005KT 30/13 A2963 RMK A01 T02960126  RH  035%=      5-min Rain = 0
KHA3 290023Z 32004KT 30/12 A2963 RMK A01 T02960122  RH  034%=      5-min Rain = 0
KHA3 290024Z 32005KT 30/12 A2964 RMK A01 T02960124  RH  035%=      5-min Rain = 0
KHA3 290025Z 32005KT 30/13 A2964 RMK A01 T02950127  RH  036%=      5-min Rain = 0
KHA3 290026Z 32005KT 30/13 A2964 RMK A01 T02950127  RH  036%=      5-min Rain = 0
KHA3 290027Z 32005KT 29/13 A2964 RMK A01 T02940125  RH  035%=      5-min Rain = 0
KHA3 290028Z 32005KT 29/13 A2964 RMK A01 T02940126  RH  036%=      5-min Rain = 0
KHA3 290029Z 32005KT 29/12 A2964 RMK A01 T02930123  RH  035%=      5-min Rain = 0
KHA3 290030Z 32005KT 29/12 A2964 RMK A01 T02930118  RH  034%=      5-min Rain = 0
KHA3 290031Z 33005KT 29/12 A2964 RMK A01 T02930122  RH  035%=      5-min Rain = 0
KHA3 290032Z 33005KT 29/13 A2964 RMK A01 T02930127  RH  036%=      5-min Rain = 0
KHA3 290033Z 33005KT 29/13 A2964 RMK A01 T02920127  RH  036%=      5-min Rain = 0
KHA3 290034Z 33004KT 29/13 A2964 RMK A01 T02920127  RH  036%=      5-min Rain = 0
KHA3 290035Z 33004KT 29/13 A2964 RMK A01 T02920129  RH  037%=      5-min Rain = 0
KHA3 290036Z 33004KT 29/13 A2964 RMK A01 T02920134  RH  038%=      5-min Rain = 0
KHA3 290037Z 33004KT 29/14 A2964 RMK A01 T02920136  RH  038%=      5-min Rain = 0
KHA3 290038Z 33004KT 29/14 A2964 RMK A01 T02910135  RH  038%=      5-min Rain = 0
KHA3 290039Z 33004KT 29/14 A2964 RMK A01 T02910136  RH  039%=      5-min Rain = 0
KHA3 290040Z 33004KT 29/14 A2964 RMK A01 T02910139  RH  039%=      5-min Rain = 0
KHA3 290041Z 33005KT 29/14 A2964 RMK A01 T02900139  RH  039%=      5-min Rain = 0
KHA3 290042Z 34004KT 29/14 A2964 RMK A01 T02890139  RH  040%=      5-min Rain = 0
KHA3 290043Z 33005KT 29/14 A2964 RMK A01 T02880142  RH  041%=      5-min Rain = 0
KHA3 290044Z 33004KT 29/14 A2964 RMK A01 T02870143  RH  041%=      5-min Rain = 0
KHA3 290045Z 33004KT 29/14 A2964 RMK A01 T02860140  RH  041%=      5-min Rain = 0
KHA3 290046Z 33004KT 29/14 A2964 RMK A01 T02860140  RH  041%=      5-min Rain = 0
KHA3 290047Z 34004KT 29/14 A2964 RMK A01 T02860142  RH  041%=      5-min Rain = 0
KHA3 290048Z 34004KT 29/14 A2964 RMK A01 T02860139  RH  040%=      5-min Rain = 0
KHA3 290049Z 34004KT 29/14 A2964 RMK A01 T02860140  RH  041%=      5-min Rain = 0
KHA3 290050Z 34004KT 29/14 A2964 RMK A01 T02860141  RH  041%=      5-min Rain = 0
KHA3 290051Z 34004KT 29/14 A2964 RMK A01 T02850144  RH  042%=      5-min Rain = 0
KHA3 290052Z 34004KT 28/14 A2964 RMK A01 T02840143  RH  042%=      5-min Rain = 0
KHA3 290053Z 34004KT 28/15 A2964 RMK A01 T02840145  RH  043%=      5-min Rain = 0
KHA3 290054Z 34004KT 28/15 A2964 RMK A01 T02830145  RH  043%=      5-min Rain = 0
KHA3 290055Z 34004KT 28/15 A2964 RMK A01 T02830145  RH  043%=      5-min Rain = 0
KHA3 290056Z 34004KT 28/14 A2964 RMK A01 T02820144  RH  043%=      5-min Rain = 0
KHA3 290057Z 34004KT 28/14 A2964 RMK A01 T02820142  RH  042%=      5-min Rain = 0
KHA3 290058Z 34004KT 28/14 A2964 RMK A01 T02820142  RH  042%=      5-min Rain = 0
KHA3 290059Z 34004KT 28/14 A2964 RMK A01 T02820141  RH  042%=      5-min Rain = 0
KHA3 290100Z 34005KT 28/14 A2964 RMK A01 T02820138  RH  041%=      5-min Rain = 0
KHA3 290101Z 34005KT 28/14 A2964 RMK A01 T02820139  RH  041%=      5-min Rain = 0
KHA3 290102Z 34005KT 28/14 A2964 RMK A01 T02820137  RH  041%=      5-min Rain = 0
KHA3 290103Z 34005KT 28/14 A2964 RMK A01 T02810137  RH  041%=      5-min Rain = 0
KHA3 290104Z 34005KT 28/14 A2964 RMK A01 T02810135  RH  041%=      5-min Rain = 0
KHA3 290105Z 34005KT 28/13 A2964 RMK A01 T02810133  RH  040%=      5-min Rain = 0
KHA3 290106Z 34005KT 28/13 A2964 RMK A01 T02810133  RH  040%=      5-min Rain = 0
KHA3 290107Z 34005KT 28/13 A2965 RMK A01 T02810132  RH  040%=      5-min Rain = 0
KHA3 290108Z 34005KT 28/13 A2965 RMK A01 T02800129  RH  039%=      5-min Rain = 0
KHA3 290109Z 34005KT 28/13 A2965 RMK A01 T02800130  RH  039%=      5-min Rain = 0
KHA3 290110Z 34005KT 28/13 A2965 RMK A01 T02800128  RH  039%=      5-min Rain = 0
KHA3 290111Z 34005KT 28/13 A2965 RMK A01 T02800128  RH  039%=      5-min Rain = 0
KHA3 290112Z 34005KT 28/13 A2965 RMK A01 T02790128  RH  039%=      5-min Rain = 0
KHA3 290113Z 34005KT 28/13 A2965 RMK A01 T02790128  RH  039%=      5-min Rain = 0
KHA3 290114Z 34006KT 28/13 A2965 RMK A01 T02780129  RH  040%=      5-min Rain = 0
KHA3 290115Z 34006KT 28/13 A2965 RMK A01 T02770128  RH  040%=      5-min Rain = 0
KHA3 290116Z 34006KT 28/13 A2965 RMK A01 T02760127  RH  040%=      5-min Rain = 0
KHA3 290117Z 34006KT 28/13 A2965 RMK A01 T02760127  RH  040%=      5-min Rain = 0
KHA3 290118Z 34006KT 28/13 A2965 RMK A01 T02750127  RH  040%=      5-min Rain = 0
KHA3 290119Z 34006KT 28/13 A2965 RMK A01 T02750128  RH  040%=      5-min Rain = 0
KHA3 290120Z 34006KT 27/13 A2965 RMK A01 T02740129  RH  041%=      5-min Rain = 0
KHA3 290121Z 34006KT 27/13 A2965 RMK A01 T02730129  RH  041%=      5-min Rain = 0
KHA3 290122Z 34006KT 27/13 A2965 RMK A01 T02720128  RH  041%=      5-min Rain = 0
KHA3 290123Z 34006KT 27/13 A2965 RMK A01 T02710129  RH  041%=      5-min Rain = 0
KHA3 290124Z 34006KT 27/13 A2965 RMK A01 T02700129  RH  042%=      5-min Rain = 0
KHA3 290125Z 34006KT 27/13 A2965 RMK A01 T02690130  RH  042%=      5-min Rain = 0
KHA3 290126Z 34006KT 27/13 A2965 RMK A01 T02680130  RH  042%=      5-min Rain = 0
KHA3 290127Z 34006KT 27/13 A2965 RMK A01 T02660129  RH  043%=      5-min Rain = 0
KHA3 290128Z 34006KT 27/13 A2965 RMK A01 T02650129  RH  043%=      5-min Rain = 0
KHA3 290129Z 34006KT 26/13 A2965 RMK A01 T02640128  RH  043%=      5-min Rain = 0
KHA3 290130Z 34006KT 26/13 A2965 RMK A01 T02630128  RH  043%=      5-min Rain = 0
KHA3 290131Z 34006KT 26/13 A2965 RMK A01 T02630128  RH  043%=      5-min Rain = 0
KHA3 290132Z 34006KT 26/13 A2965 RMK A01 T02620127  RH  043%=      5-min Rain = 0
KHA3 290133Z 34006KT 26/13 A2965 RMK A01 T02620127  RH  043%=      5-min Rain = 0
KHA3 290134Z 35005KT 26/13 A2965 RMK A01 T02620127  RH  043%=      5-min Rain = 0
KHA3 290135Z 35005KT 26/13 A2965 RMK A01 T02620128  RH  044%=      5-min Rain = 0
KHA3 290136Z 35005KT 26/13 A2965 RMK A01 T02610128  RH  044%=      5-min Rain = 0
KHA3 290137Z 35004KT 26/13 A2965 RMK A01 T02600127  RH  044%=      5-min Rain = 0
KHA3 290138Z 35004KT 26/12 A2965 RMK A01 T02590124  RH  043%=      5-min Rain = 0
KHA3 290139Z 36003KT 26/12 A2965 RMK A01 T02590119  RH  042%=      5-min Rain = 0
KHA3 290140Z 36002KT 26/12 A2965 RMK A01 T02590116  RH  041%=      5-min Rain = 0
KHA3 290141Z 00002KT 26/11 A2965 RMK A01 T02600114  RH  040%=      5-min Rain = 0
KHA3 290142Z 36002KT 26/11 A2965 RMK A01 T02620112  RH  039%=      5-min Rain = 0
KHA3 290143Z 36002KT 26/11 A2965 RMK A01 T02630110  RH  038%=      5-min Rain = 0
KHA3 290144Z 35002KT 26/11 A2965 RMK A01 T02640108  RH  038%=      5-min Rain = 0
KHA3 290145Z 35002KT 27/11 A2966 RMK A01 T02650108  RH  037%=      5-min Rain = 0
KHA3 290146Z 34002KT 27/11 A2966 RMK A01 T02650106  RH  037%=      5-min Rain = 0
KHA3 290147Z 34002KT 27/11 A2966 RMK A01 T02660108  RH  037%=      5-min Rain = 0
KHA3 290148Z 34002KT 27/11 A2966 RMK A01 T02660107  RH  037%=      5-min Rain = 0
KHA3 290149Z 35002KT 27/10 A2966 RMK A01 T02650104  RH  036%=      5-min Rain = 0
KHA3 290150Z 34002KT 27/10 A2966 RMK A01 T02650103  RH  036%=      5-min Rain = 0
KHA3 290151Z 34002KT 27/10 A2966 RMK A01 T02650101  RH  036%=      5-min Rain = 0
KHA3 290152Z 35002KT 27/10 A2966 RMK A01 T02650100  RH  036%=      5-min Rain = 0
KHA3 290153Z 35002KT 27/10 A2966 RMK A01 T02650099  RH  035%=      5-min Rain = 0
KHA3 290154Z 35002KT 27/10 A2966 RMK A01 T02660098  RH  035%=      5-min Rain = 0
KHA3 290155Z 35003KT 27/10 A2966 RMK A01 T02670098  RH  035%=      5-min Rain = 0
KHA3 290156Z 35002KT 27/10 A2966 RMK A01 T02670097  RH  034%=      5-min Rain = 0
KHA3 290157Z 35002KT 27/10 A2966 RMK A01 T02680096  RH  034%=      5-min Rain = 0
KHA3 290158Z 35003KT 27/10 A2966 RMK A01 T02680096  RH  034%=      5-min Rain = 0
KHA3 290159Z 34002KT 27/10 A2966 RMK A01 T02680095  RH  033%=      5-min Rain = 0
KHA3 290200Z 34003KT 27/10 A2966 RMK A01 T02690095  RH  033%=      5-min Rain = 0
KHA3 290201Z 34003KT 27/09 A2966 RMK A01 T02700094  RH  033%=      5-min Rain = 0
KHA3 290202Z 34003KT 27/09 A2966 RMK A01 T02710091  RH  032%=      5-min Rain = 0
KHA3 290203Z 34003KT 27/09 A2966 RMK A01 T02720090  RH  032%=      5-min Rain = 0
KHA3 290204Z 34003KT 27/09 A2966 RMK A01 T02730088  RH  031%=      5-min Rain = 0
KHA3 290205Z 34003KT 27/09 A2966 RMK A01 T02740089  RH  031%=      5-min Rain = 0
KHA3 290206Z 34003KT 27/09 A2966 RMK A01 T02740091  RH  032%=      5-min Rain = 0
KHA3 290207Z 34002KT 27/09 A2966 RMK A01 T02740090  RH  031%=      5-min Rain = 0
KHA3 290208Z 34002KT 27/09 A2966 RMK A01 T02740089  RH  031%=      5-min Rain = 0
KHA3 290209Z 33002KT 27/09 A2966 RMK A01 T02740090  RH  031%=      5-min Rain = 0
KHA3 290210Z 33002KT 27/09 A2966 RMK A01 T02740091  RH  032%=      5-min Rain = 0
KHA3 290211Z 33002KT 27/09 A2966 RMK A01 T02730092  RH  032%=      5-min Rain = 0
KHA3 290212Z 33002KT 27/09 A2966 RMK A01 T02720092  RH  032%=      5-min Rain = 0
KHA3 290213Z 33001KT 27/09 A2966 RMK A01 T02720093  RH  032%=      5-min Rain = 0
KHA3 290214Z 33001KT 27/10 A2966 RMK A01 T02700103  RH  035%=      5-min Rain = 0
KHA3 290215Z 33001KT 27/11 A2966 RMK A01 T02680106  RH  036%=      5-min Rain = 0
KHA3 290216Z 33001KT 27/10 A2967 RMK A01 T02650101  RH  036%=      5-min Rain = 0
KHA3 290217Z 33001KT 26/10 A2967 RMK A01 T02620098  RH  036%=      5-min Rain = 0
KHA3 290218Z 33001KT 26/10 A2967 RMK A01 T02610096  RH  035%=      5-min Rain = 0
KHA3 290219Z 33001KT 26/09 A2967 RMK A01 T02610094  RH  035%=      5-min Rain = 0
KHA3 290220Z 33001KT 26/09 A2967 RMK A01 T02600093  RH  035%=      5-min Rain = 0
KHA3 290221Z 33001KT 26/09 A2967 RMK A01 T02600092  RH  035%=      5-min Rain = 0
KHA3 290222Z 33002KT 26/09 A2967 RMK A01 T02600092  RH  035%=      5-min Rain = 0
KHA3 290223Z 33002KT 26/09 A2967 RMK A01 T02610092  RH  034%=      5-min Rain = 0
KHA3 290224Z 33002KT 26/09 A2967 RMK A01 T02610092  RH  035%=      5-min Rain = 0
KHA3 290225Z 33001KT 26/09 A2967 RMK A01 T02610092  RH  034%=      5-min Rain = 0
KHA3 290226Z 33001KT 26/09 A2967 RMK A01 T02610092  RH  034%=      5-min Rain = 0
KHA3 290227Z 33001KT 26/10 A2967 RMK A01 T02610098  RH  036%=      5-min Rain = 0
KHA3 290228Z 33000KT 26/10 A2967 RMK A01 T02590101  RH  037%=      5-min Rain = 0
KHA3 290229Z 00000KT 26/10 A2967 RMK A01 T02570096  RH  036%=      5-min Rain = 0
KHA3 290230Z 00000KT 26/10 A2967 RMK A01 T02560095  RH  036%=      5-min Rain = 0
KHA3 290231Z 00000KT 26/10 A2967 RMK A01 T02560095  RH  036%=      5-min Rain = 0
KHA3 290232Z 00000KT 26/09 A2967 RMK A01 T02570094  RH  036%=      5-min Rain = 0
KHA3 290233Z 00000KT 26/10 A2967 RMK A01 T02580096  RH  036%=      5-min Rain = 0
KHA3 290234Z 00000KT 26/10 A2967 RMK A01 T02580096  RH  036%=      5-min Rain = 0
KHA3 290235Z 00000KT 26/10 A2967 RMK A01 T02580096  RH  036%=      5-min Rain = 0
KHA3 290236Z 00000KT 26/10 A2967 RMK A01 T02570096  RH  036%=      5-min Rain = 0
KHA3 290237Z 00000KT 26/09 A2967 RMK A01 T02570093  RH  035%=      5-min Rain = 0
KHA3 290238Z 00000KT 26/09 A2967 RMK A01 T02570090  RH  035%=      5-min Rain = 0
KHA3 290239Z 33001KT 26/09 A2967 RMK A01 T02590089  RH  034%=      5-min Rain = 0
KHA3 290240Z 33001KT 26/09 A2967 RMK A01 T02600089  RH  034%=      5-min Rain = 0
KHA3 290241Z 33001KT 26/09 A2967 RMK A01 T02610088  RH  034%=      5-min Rain = 0
KHA3 290242Z 33000KT 26/09 A2967 RMK A01 T02620088  RH  033%=      5-min Rain = 0
KHA3 290243Z 33000KT 26/09 A2967 RMK A01 T02620088  RH  033%=      5-min Rain = 0
KHA3 290244Z 33000KT 26/09 A2967 RMK A01 T02620089  RH  033%=      5-min Rain = 0
KHA3 290245Z 00000KT 26/09 A2968 RMK A01 T02620088  RH  033%=      5-min Rain = 0
KHA3 290246Z 00000KT 26/09 A2968 RMK A01 T02620086  RH  033%=      5-min Rain = 0
KHA3 290247Z 00000KT 26/09 A2968 RMK A01 T02610085  RH  033%=      5-min Rain = 0
KHA3 290248Z 00000KT 26/08 A2968 RMK A01 T02610084  RH  033%=      5-min Rain = 0
KHA3 290249Z 00000KT 26/08 A2968 RMK A01 T02620084  RH  032%=      5-min Rain = 0
KHA3 290250Z 00000KT 26/08 A2968 RMK A01 T02620083  RH  032%=      5-min Rain = 0
KHA3 290251Z 00000KT 26/08 A2968 RMK A01 T02630083  RH  032%=      5-min Rain = 0
KHA3 290252Z 00000KT 26/08 A2968 RMK A01 T02640083  RH  032%=      5-min Rain = 0
KHA3 290253Z 00000KT 26/08 A2968 RMK A01 T02640082  RH  032%=      5-min Rain = 0
KHA3 290254Z 00000KT 26/09 A2968 RMK A01 T02640085  RH  032%=      5-min Rain = 0
KHA3 290255Z 00000KT 26/09 A2968 RMK A01 T02630088  RH  033%=      5-min Rain = 0
KHA3 290256Z 00000KT 26/09 A2968 RMK A01 T02610086  RH  033%=      5-min Rain = 0
KHA3 290257Z 00000KT 26/08 A2968 RMK A01 T02600084  RH  033%=      5-min Rain = 0
KHA3 290258Z 00000KT 26/08 A2968 RMK A01 T02600082  RH  032%=      5-min Rain = 0
KHA3 290259Z 00000KT 26/08 A2968 RMK A01 T02600080  RH  032%=      5-min Rain = 0
KHA3 290300Z 00000KT 26/08 A2968 RMK A01 T02600079  RH  032%=      5-min Rain = 0
KHA3 290301Z 00000KT 26/08 A2968 RMK A01 T02600080  RH  032%=      5-min Rain = 0
KHA3 290302Z 00000KT 26/08 A2968 RMK A01 T02590082  RH  032%=      5-min Rain = 0
KHA3 290303Z 00000KT 26/08 A2968 RMK A01 T02580082  RH  033%=      5-min Rain = 0
KHA3 290304Z 00000KT 26/08 A2968 RMK A01 T02580080  RH  032%=      5-min Rain = 0
KHA3 290305Z 08001KT 26/09 A2968 RMK A01 T02580085  RH  033%=      5-min Rain = 0
KHA3 290306Z 09003KT 26/10 A2968 RMK A01 T02550098  RH  037%=      5-min Rain = 0
KHA3 290307Z 09003KT 25/11 A2968 RMK A01 T02480106  RH  041%=      5-min Rain = 0
KHA3 290308Z 10003KT 24/11 A2969 RMK A01 T02410107  RH  043%=      5-min Rain = 0
KHA3 290309Z 10003KT 24/11 A2969 RMK A01 T02360110  RH  045%=      5-min Rain = 0
KHA3 290310Z 11004KT 23/11 A2969 RMK A01 T02320108  RH  046%=      5-min Rain = 0
KHA3 290311Z 11004KT 23/09 A2969 RMK A01 T02310094  RH  042%=      5-min Rain = 0
KHA3 290312Z 11008KT 23/11 A2969 RMK A01 T02340106  RH  044%=      5-min Rain = 0
KHA3 290313Z 11010KT 23/11 A2969 RMK A01 T02290110  RH  047%=      5-min Rain = 0
KHA3 290314Z 12010KT 22/11 A2969 RMK A01 T02230110  RH  049%=      5-min Rain = 0
KHA3 290315Z 11010KT 22/11 A2969 RMK A01 T02220110  RH  049%=      5-min Rain = 0
KHA3 290316Z 12010KT 22/12 A2969 RMK A01 T02210116  RH  051%=      5-min Rain = 0
KHA3 290317Z 11008KT 22/12 A2969 RMK A01 T02190116  RH  052%=      5-min Rain = 0
KHA3 290318Z 12007KT 22/11 A297 RMK A01 T02190114  RH  051%=      5-min Rain = 0
KHA3 290319Z 12006KT 22/11 A297 RMK A01 T02220111  RH  049%=      5-min Rain = 0
KHA3 290320Z 12006KT 22/12 A297 RMK A01 T02240116  RH  050%=      5-min Rain = 0
KHA3 290321Z 12007KT 22/11 A297 RMK A01 T02230112  RH  049%=      5-min Rain = 0
KHA3 290322Z 12007KT 23/11 A297 RMK A01 T02250109  RH  048%=      5-min Rain = 0
KHA3 290323Z 12008KT 23/11 A297 RMK A01 T02270111  RH  048%=      5-min Rain = 0
KHA3 290324Z 12008KT 23/11 A297 RMK A01 T02270110  RH  048%=      5-min Rain = 0
KHA3 290325Z 12007KT 23/11 A297 RMK A01 T02270110  RH  047%=      5-min Rain = 0
KHA3 290326Z 12007KT 23/11 A297 RMK A01 T02270110  RH  047%=      5-min Rain = 0
KHA3 290327Z 12007KT 23/11 A297 RMK A01 T02270114  RH  049%=      5-min Rain = 0
KHA3 290328Z 12007KT 22/12 A297 RMK A01 T02240115  RH  050%=      5-min Rain = 0
KHA3 290329Z 12007KT 22/12 A297 RMK A01 T02220116  RH  051%=      5-min Rain = 0
KHA3 290330Z 12007KT 22/12 A297 RMK A01 T02210117  RH  052%=      5-min Rain = 0
KHA3 290331Z 12006KT 22/12 A297 RMK A01 T02200119  RH  053%=      5-min Rain = 0
KHA3 290332Z 12006KT 22/12 A297 RMK A01 T02180119  RH  053%=      5-min Rain = 0
KHA3 290333Z 12006KT 22/12 A297 RMK A01 T02170119  RH  054%=      5-min Rain = 0
KHA3 290334Z 12007KT 22/12 A297 RMK A01 T02170117  RH  053%=      5-min Rain = 0
KHA3 290335Z 12007KT 22/12 A297 RMK A01 T02190118  RH  053%=      5-min Rain = 0
KHA3 290336Z 12007KT 22/12 A297 RMK A01 T02190117  RH  052%=      5-min Rain = 0
KHA3 290337Z 12007KT 22/12 A297 RMK A01 T02200116  RH  052%=      5-min Rain = 0
KHA3 290338Z 12007KT 22/12 A297 RMK A01 T02210116  RH  051%=      5-min Rain = 0
KHA3 290339Z 12007KT 22/12 A297 RMK A01 T02220117  RH  051%=      5-min Rain = 0
KHA3 290340Z 12008KT 22/12 A297 RMK A01 T02210118  RH  052%=      5-min Rain = 0
KHA3 290341Z 12008KT 22/12 A297 RMK A01 T02210117  RH  052%=      5-min Rain = 0
KHA3 290342Z 11008KT 22/12 A297 RMK A01 T02200115  RH  051%=      5-min Rain = 0
KHA3 290343Z 11008KT 22/11 A297 RMK A01 T02200114  RH  051%=      5-min Rain = 0
KHA3 290344Z 11008KT 22/11 A297 RMK A01 T02210114  RH  051%=      5-min Rain = 0
KHA3 290345Z 11009KT 22/11 A297 RMK A01 T02210114  RH  050%=      5-min Rain = 0
KHA3 290346Z 11009KT 22/12 A297 RMK A01 T02220115  RH  051%=      5-min Rain = 0
KHA3 290347Z 11009KT 22/12 A297 RMK A01 T02210115  RH  051%=      5-min Rain = 0
KHA3 290348Z 10009KT 22/12 A297 RMK A01 T02200115  RH  051%=      5-min Rain = 0
KHA3 290349Z 10009KT 22/12 A297 RMK A01 T02190115  RH  052%=      5-min Rain = 0
KHA3 290350Z 10009KT 22/11 A297 RMK A01 T02190114  RH  051%=      5-min Rain = 0
KHA3 290351Z 10008KT 22/11 A297 RMK A01 T02190113  RH  051%=      5-min Rain = 0
KHA3 290352Z 11008KT 22/11 A297 RMK A01 T02200113  RH  051%=      5-min Rain = 0
KHA3 290353Z 11008KT 22/11 A297 RMK A01 T02200114  RH  051%=      5-min Rain = 0
KHA3 290354Z 11008KT 22/12 A297 RMK A01 T02190115  RH  051%=      5-min Rain = 0
KHA3 290355Z 11009KT 22/11 A297 RMK A01 T02180114  RH  052%=      5-min Rain = 0
KHA3 290356Z 11009KT 22/11 A297 RMK A01 T02180113  RH  052%=      5-min Rain = 0
KHA3 290357Z 10009KT 22/11 A297 RMK A01 T02170113  RH  051%=      5-min Rain = 0
KHA3 290358Z 10009KT 22/11 A297 RMK A01 T02170112  RH  051%=      5-min Rain = 0
KHA3 290359Z 10009KT 22/11 A297 RMK A01 T02180111  RH  051%=      5-min Rain = 0
KHA3 290400Z 10009KT 22/11 A297 RMK A01 T02180110  RH  050%=      5-min Rain = 0
KHA3 290401Z 10009KT 22/11 A297 RMK A01 T02200109  RH  049%=      5-min Rain = 0
KHA3 290402Z 10009KT 22/11 A297 RMK A01 T02220108  RH  048%=      5-min Rain = 0
KHA3 290403Z 10009KT 22/11 A297 RMK A01 T02230108  RH  048%=      5-min Rain = 0
KHA3 290404Z 10009KT 22/11 A297 RMK A01 T02240107  RH  047%=      5-min Rain = 0
KHA3 290405Z 10009KT 23/11 A297 RMK A01 T02250107  RH  047%=      5-min Rain = 0
KHA3 290406Z 10009KT 23/11 A297 RMK A01 T02250107  RH  047%=      5-min Rain = 0
KHA3 290407Z 10009KT 23/11 A297 RMK A01 T02260107  RH  047%=      5-min Rain = 0
KHA3 290408Z 10009KT 23/11 A297 RMK A01 T02260108  RH  047%=      5-min Rain = 0
KHA3 290409Z 10009KT 23/11 A297 RMK A01 T02250108  RH  047%=      5-min Rain = 0
KHA3 290410Z 10009KT 23/11 A297 RMK A01 T02250109  RH  048%=      5-min Rain = 0
KHA3 290411Z 10008KT 22/11 A297 RMK A01 T02240109  RH  048%=      5-min Rain = 0
KHA3 290412Z 10008KT 22/11 A297 RMK A01 T02240109  RH  048%=      5-min Rain = 0
KHA3 290413Z 10008KT 22/11 A297 RMK A01 T02240110  RH  048%=      5-min Rain = 0
KHA3 290414Z 10008KT 22/11 A297 RMK A01 T02230109  RH  048%=      5-min Rain = 0
KHA3 290415Z 10008KT 22/11 A297 RMK A01 T02230108  RH  048%=      5-min Rain = 0
KHA3 290416Z 10008KT 22/11 A297 RMK A01 T02230109  RH  048%=      5-min Rain = 0
KHA3 290417Z 10008KT 22/11 A297 RMK A01 T02230108  RH  048%=      5-min Rain = 0
KHA3 290418Z 10008KT 22/11 A297 RMK A01 T02230109  RH  048%=      5-min Rain = 0
KHA3 290419Z 10008KT 22/11 A297 RMK A01 T02230110  RH  049%=      5-min Rain = 0
KHA3 290420Z 10008KT 22/11 A297 RMK A01 T02220109  RH  049%=      5-min Rain = 0
KHA3 290421Z 10008KT 22/11 A297 RMK A01 T02210109  RH  049%=      5-min Rain = 0
KHA3 290422Z 10008KT 22/11 A297 RMK A01 T02210109  RH  049%=      5-min Rain = 0
KHA3 290423Z 10008KT 22/11 A297 RMK A01 T02200109  RH  049%=      5-min Rain = 0
KHA3 290424Z 10008KT 22/11 A297 RMK A01 T02200110  RH  049%=      5-min Rain = 0
KHA3 290425Z 10008KT 22/11 A297 RMK A01 T02200109  RH  049%=      5-min Rain = 0
KHA3 290426Z 10008KT 22/11 A2971 RMK A01 T02190110  RH  050%=      5-min Rain = 0
KHA3 290427Z 10009KT 22/11 A2971 RMK A01 T02180110  RH  050%=      5-min Rain = 0
KHA3 290428Z 10009KT 22/11 A2971 RMK A01 T02170109  RH  050%=      5-min Rain = 0
KHA3 290429Z 10009KT 22/11 A2971 RMK A01 T02170108  RH  050%=      5-min Rain = 0
KHA3 290430Z 10010KT 22/11 A2971 RMK A01 T02170108  RH  050%=      5-min Rain = 0
KHA3 290431Z 09011KT 22/11 A2971 RMK A01 T02180108  RH  050%=      5-min Rain = 0
KHA3 290432Z 09010KT 22/11 A2971 RMK A01 T02220111  RH  050%=      5-min Rain = 0
KHA3 290433Z 09009KT 23/12 A2971 RMK A01 T02250115  RH  050%=      5-min Rain = 0
KHA3 290434Z 09009KT 23/12 A2971 RMK A01 T02250118  RH  051%=      5-min Rain = 0
KHA3 290435Z 09009KT 22/12 A2971 RMK A01 T02240121  RH  052%=      5-min Rain = 0
KHA3 290436Z 09009KT 22/12 A2971 RMK A01 T02220123  RH  054%=      5-min Rain = 0
KHA3 290437Z 10009KT 22/12 A2971 RMK A01 T02200124  RH  054%=      5-min Rain = 0
KHA3 290438Z 10009KT 22/13 A2971 RMK A01 T02200127  RH  056%=      5-min Rain = 0
KHA3 290439Z 10009KT 22/13 A2971 RMK A01 T02190129  RH  057%=      5-min Rain = 0
KHA3 290440Z 10008KT 22/13 A2971 RMK A01 T02190132  RH  058%=      5-min Rain = 0
KHA3 290441Z 10008KT 22/13 A2971 RMK A01 T02180134  RH  059%=      5-min Rain = 0
KHA3 290442Z 10009KT 22/14 A2971 RMK A01 T02170136  RH  060%=      5-min Rain = 0
KHA3 290443Z 10009KT 22/14 A2971 RMK A01 T02160138  RH  061%=      5-min Rain = 0
KHA3 290444Z 09009KT 22/14 A2971 RMK A01 T02160141  RH  062%=      5-min Rain = 0
KHA3 290445Z 10009KT 22/14 A2971 RMK A01 T02160144  RH  064%=      5-min Rain = 0
KHA3 290446Z 10008KT 22/15 A297 RMK A01 T02170145  RH  064%=      5-min Rain = 0
KHA3 290447Z 09009KT 22/15 A297 RMK A01 T02170146  RH  064%=      5-min Rain = 0
KHA3 290448Z 09008KT 22/15 A297 RMK A01 T02170147  RH  065%=      5-min Rain = 0
KHA3 290449Z 09008KT 22/15 A297 RMK A01 T02160149  RH  066%=      5-min Rain = 0
KHA3 290450Z 09007KT 22/15 A297 RMK A01 T02150151  RH  067%=      5-min Rain = 0
KHA3 290451Z 09007KT 21/15 A297 RMK A01 T02140152  RH  068%=      5-min Rain = 0
KHA3 290452Z 09007KT 21/15 A297 RMK A01 T02130153  RH  069%=      5-min Rain = 0
KHA3 290453Z 09007KT 21/15 A297 RMK A01 T02130153  RH  069%=      5-min Rain = 0
KHA3 290454Z 10007KT 21/15 A297 RMK A01 T02120154  RH  069%=      5-min Rain = 0
KHA3 290455Z 10007KT 21/16 A297 RMK A01 T02110155  RH  070%=      5-min Rain = 0
KHA3 290456Z 10007KT 21/16 A297 RMK A01 T02100156  RH  071%=      5-min Rain = 0
KHA3 290457Z 10008KT 21/16 A297 RMK A01 T02090157  RH  072%=      5-min Rain = 0
KHA3 290458Z 10008KT 21/16 A297 RMK A01 T02090158  RH  073%=      5-min Rain = 0
KHA3 290459Z 10007KT 21/16 A297 RMK A01 T02090159  RH  073%=      5-min Rain = 0

Page generated in 0.0714 seconds.